Data Archive--October, 2004

Date Time Heat Index Current Temp Wind Chill High Temp Low Temp Humidity Dew Point Wind Speed Gust Wind Direction Rain Barometer
10/01/2004 12:00 a 55.9 55.9 55.9 56.5 55.3 100 55.9 0.0 0.0 --- 0.00 29.974
10/01/2004 12:30 a 56.1 56.1 56.1 56.6 55.7 100 56.1 0.0 0.0 --- 0.00 29.987
10/01/2004 1:00 a 55.1 55.1 55.1 55.7 54.8 100 55.1 0.0 0.0 --- 0.00 29.995
10/01/2004 1:30 a 54.6 54.6 54.6 54.9 54.2 100 54.6 0.0 0.0 --- 0.00 29.999
10/01/2004 2:00 a 53.9 53.9 53.9 54.2 53.4 100 53.9 0.0 0.0 --- 0.00 30.001
10/01/2004 2:30 a 53.0 53.0 53.0 53.4 52.8 100 53.0 0.0 0.0 --- 0.00 30.008
10/01/2004 3:00 a 52.6 52.6 52.6 52.8 52.0 100 52.6 0.0 0.0 --- 0.00 30.009
10/01/2004 3:30 a 51.7 51.7 51.7 52.1 51.4 100 51.7 0.0 0.0 --- 0.00 30.011
10/01/2004 4:00 a 51.4 51.4 51.4 51.5 51.1 100 51.4 0.0 0.0 --- 0.00 30.023
10/01/2004 4:30 a 50.8 50.8 50.8 51.1 50.1 100 50.8 0.0 0.0 --- 0.00 30.028
10/01/2004 5:00 a 49.7 49.7 49.7 50.2 49.3 100 49.7 0.0 0.0 --- 0.00 30.032
10/01/2004 5:30 a 49.0 49.0 49.0 49.4 48.8 100 49.0 0.0 0.0 --- 0.00 30.035
10/01/2004 6:00 a 48.6 48.6 48.6 48.8 48.4 100 48.6 0.0 0.0 --- 0.00 30.041
10/01/2004 6:30 a 48.5 48.5 48.5 48.7 48.4 100 48.5 0.0 0.0 --- 0.00 30.057
10/01/2004 7:00 a 48.5 48.5 48.5 48.7 48.4 100 48.5 0.0 0.0 --- 0.00 30.063
10/01/2004 7:30 a 48.8 48.8 48.8 49.1 48.5 100 48.8 0.0 0.0 --- 0.00 30.075
10/01/2004 8:00 a 49.6 49.6 49.6 50.3 49.1 100 49.6 0.0 0.0 --- 0.00 30.079
10/01/2004 8:30 a 51.4 51.4 51.4 52.7 50.3 100 51.4 0.0 0.0 --- 0.00 30.085
10/01/2004 9:00 a 53.9 53.9 53.9 54.8 52.7 100 53.9 0.0 0.0 --- 0.00 30.086
10/01/2004 9:30 a 55.6 55.6 55.6 56.3 54.8 100 55.6 0.0 0.0 --- 0.00 30.094
10/01/2004 10:00 a 57.1 57.1 57.1 58.2 56.3 100 57.1 0.0 2.0 ESE 0.00 30.090
10/01/2004 10:30 a 58.8 58.8 58.8 59.4 58.2 100 58.8 0.0 3.0 ESE 0.00 30.096
10/01/2004 11:00 a 60.6 60.6 60.6 62.5 59.4 100 60.6 0.0 1.0 ESE 0.00 30.091
10/01/2004 11:30 a 62.4 62.4 62.4 63.1 61.7 100 62.4 0.0 2.0 ESE 0.00 30.089
10/01/2004 12:00 p 63.3 63.3 63.3 63.9 63.0 100 63.3 0.0 2.0 ESE 0.00 30.086
10/01/2004 12:30 p 65.0 65.0 65.0 66.0 63.9 100 65.0 0.0 1.0 --- 0.00 30.083
10/01/2004 1:00 p 75.2 74.2 74.2 82.9 66.0 66 62.1 0.0 2.0 ESE 0.00 30.070
10/01/2004 1:30 p 81.0 79.1 79.1 84.6 72.7 60 64.0 0.0 2.0 E 0.00 30.068
10/01/2004 2:00 p 71.8 72.0 72.0 72.6 71.8 58 56.4 0.0 0.0 --- 0.00 30.064
10/01/2004 2:30 p 71.1 71.7 71.7 72.0 71.5 51 52.6 0.0 2.0 E 0.00 30.058
10/01/2004 3:00 p 71.1 71.7 71.7 71.9 71.4 51 52.6 0.0 2.0 ESE 0.00 30.055
10/01/2004 3:30 p 69.8 71.1 71.1 71.4 71.0 54 53.6 0.0 1.0 ESE 0.00 30.048
10/01/2004 4:00 p 69.4 70.5 70.5 71.0 70.0 52 52.0 0.0 0.0 --- 0.00 30.045
10/01/2004 4:30 p 69.6 69.5 69.5 70.0 68.7 58 54.1 0.0 0.0 --- 0.00 30.047
10/01/2004 5:00 p 67.0 68.0 68.0 68.6 67.5 55 51.2 0.0 0.0 --- 0.00 30.055
10/01/2004 5:30 p 66.5 66.5 66.5 67.6 65.4 63 53.5 0.0 0.0 --- 0.00 30.058
10/01/2004 6:00 p 64.3 64.3 64.3 65.4 63.3 69 53.9 0.0 0.0 --- 0.00 30.066
10/01/2004 6:30 p 62.1 62.1 62.1 63.3 60.9 80 55.9 0.0 0.0 --- 0.00 30.065
10/01/2004 7:00 p 59.8 59.8 59.8 60.9 58.8 87 55.9 0.0 0.0 --- 0.00 30.073
10/01/2004 7:30 p 57.8 57.8 57.8 58.8 56.9 93 55.8 0.0 0.0 --- 0.00 30.076
10/01/2004 8:00 p 56.2 56.2 56.2 56.8 55.9 99 55.9 0.0 1.0 --- 0.00 30.083
10/01/2004 8:30 p 55.7 55.7 55.7 56.0 55.6 100 55.7 0.0 0.0 --- 0.00 30.092
10/01/2004 9:00 p 55.4 55.4 55.4 55.6 55.3 100 55.4 0.0 0.0 --- 0.00 30.095
10/01/2004 9:30 p 55.2 55.2 55.2 55.5 54.7 100 55.2 0.0 0.0 --- 0.00 30.096
10/01/2004 10:00 p 54.5 54.5 54.5 54.7 54.2 100 54.5 0.0 0.0 --- 0.00 30.097
10/01/2004 10:30 p 53.9 53.9 53.9 54.2 53.6 100 53.9 0.0 0.0 --- 0.00 30.096
10/01/2004 11:00 p 53.2 53.2 53.2 53.6 52.9 100 53.2 0.0 0.0 --- 0.00 30.097
10/01/2004 11:30 p 52.7 52.7 52.7 52.9 52.6 100 52.7 0.0 0.0 --- 0.00 30.099
10/02/2004 12:00 a 52.5 52.5 52.5 52.6 52.2 100 52.5 0.0 0.0 --- 0.00 30.096
10/02/2004 12:30 a 51.9 51.9 51.9 52.2 51.7 100 51.9 0.0 0.0 --- 0.00 30.101
10/02/2004 1:00 a 51.3 51.3 51.3 51.7 51.0 100 51.3 0.0 0.0 --- 0.00 30.102
10/02/2004 1:30 a 51.0 51.0 51.0 51.1 50.9 100 51.0 0.0 0.0 --- 0.00 30.103
10/02/2004 2:00 a 50.8 50.8 50.8 51.0 50.7 100 50.8 0.0 0.0 --- 0.00 30.102
10/02/2004 2:30 a 50.8 50.8 50.8 51.0 50.6 100 50.8 0.0 0.0 --- 0.00 30.085
10/02/2004 3:00 a 51.0 51.0 51.0 51.1 50.9 100 51.0 0.0 0.0 --- 0.00 30.078
10/02/2004 3:30 a 50.9 50.9 50.9 51.1 50.6 100 50.9 0.0 0.0 --- 0.00 30.089
10/02/2004 4:00 a 51.9 51.9 51.9 52.4 51.0 100 51.9 0.0 0.0 --- 0.00 30.081
10/02/2004 4:30 a 52.7 52.7 52.7 52.8 52.4 100 52.7 0.0 0.0 --- 0.00 30.078
10/02/2004 5:00 a 52.8 52.8 52.8 53.4 52.5 100 52.8 0.0 0.0 --- 0.00 30.080
10/02/2004 5:30 a 53.8 53.8 53.8 54.2 53.4 100 53.8 0.0 0.0 --- 0.00 30.074
10/02/2004 6:00 a 54.6 54.6 54.6 55.0 54.2 100 54.6 0.0 0.0 --- 0.00 30.076
10/02/2004 6:30 a 55.4 55.4 55.4 55.7 55.0 100 55.4 0.0 0.0 --- 0.00 30.082
10/02/2004 7:00 a 55.9 55.9 55.9 56.1 55.7 100 55.9 0.0 0.0 --- 0.00 30.079
10/02/2004 7:30 a 56.5 56.5 56.5 57.0 56.1 100 56.5 0.0 0.0 --- 0.00 30.079
10/02/2004 8:00 a 57.4 57.4 57.4 58.1 57.0 100 57.4 0.0 0.0 --- 0.00 30.075
10/02/2004 8:30 a 58.8 58.8 58.8 59.3 58.1 100 58.8 0.0 0.0 --- 0.00 30.071
10/02/2004 9:00 a 59.8 59.8 59.8 60.3 59.3 100 59.8 0.0 0.0 --- 0.00 30.069
10/02/2004 9:30 a 62.3 62.3 62.3 64.3 60.3 89 59.0 0.0 1.0 E 0.00 30.059
10/02/2004 10:00 a 64.4 64.4 64.4 64.7 64.3 87 60.5 0.0 0.0 --- 0.00 30.064
10/02/2004 10:30 a 64.6 64.6 64.6 64.9 64.4 85 60.0 0.0 1.0 E 0.00 30.053
10/02/2004 11:00 a 65.5 65.5 65.5 66.2 64.8 84 60.5 0.0 1.0 --- 0.00 30.047
10/02/2004 11:30 a 66.2 66.2 66.2 66.3 66.1 80 59.9 0.0 2.0 E 0.00 30.038
10/02/2004 12:00 p 66.7 66.7 66.7 66.9 66.2 81 60.7 0.0 1.0 ENE 0.00 30.036
10/02/2004 12:30 p 66.6 66.6 66.6 66.8 66.3 80 60.2 0.0 1.0 NE 0.00 30.031
10/02/2004 1:00 p 66.6 66.6 66.6 66.8 66.4 77 59.2 0.0 2.0 NE 0.00 30.020
10/02/2004 1:30 p 66.0 66.0 66.0 66.4 65.9 68 55.1 0.0 1.0 --- 0.00 30.015
10/02/2004 2:00 p 65.7 65.7 65.7 66.0 65.3 75 57.6 0.0 0.0 --- 0.00 30.000
10/02/2004 2:30 p 64.8 64.8 64.8 65.3 64.6 75 56.7 0.0 0.0 --- 0.00 29.992
10/02/2004 3:00 p 65.9 65.9 65.9 66.9 64.8 74 57.4 0.0 0.0 --- 0.00 29.983
10/02/2004 3:30 p 66.3 66.3 66.3 66.8 66.0 77 58.9 0.0 1.0 NE 0.00 29.973
10/02/2004 4:00 p 65.7 65.7 65.7 66.1 65.4 81 59.7 0.0 2.0 NE 0.00 29.967
10/02/2004 4:30 p 65.3 65.3 65.3 65.5 64.8 84 60.3 0.0 2.0 N 0.00 29.975
10/02/2004 5:00 p 64.6 64.6 64.6 64.8 64.5 87 60.6 0.0 0.0 --- 0.00 29.970
10/02/2004 5:30 p 64.1 64.1 64.1 64.5 63.8 90 61.1 0.0 0.0 --- 0.00 29.969
10/02/2004 6:00 p 63.5 63.5 63.5 63.8 62.7 100 63.5 0.0 0.0 --- 0.00 29.969
10/02/2004 6:30 p 62.4 62.4 62.4 62.7 62.4 100 62.4 0.0 0.0 --- 0.00 29.978
10/02/2004 7:00 p 62.5 62.5 62.5 62.5 62.4 100 62.5 0.0 0.0 --- 0.00 29.972
10/02/2004 7:30 p 62.5 62.5 62.5 62.6 62.5 100 62.5 0.0 0.0 --- 0.00 29.968
10/02/2004 8:00 p 62.6 62.6 62.6 62.7 62.6 100 62.6 0.0 0.0 --- 0.00 29.953
10/02/2004 8:30 p 62.6 62.6 62.6 62.7 62.6 100 62.6 0.0 0.0 --- 0.00 29.951
10/02/2004 9:00 p 62.7 62.7 62.7 62.8 62.7 100 62.7 0.0 0.0 --- 0.00 29.954
10/02/2004 9:30 p 62.9 62.9 62.9 63.0 62.8 100 62.9 0.0 0.0 --- 0.00 29.965
10/02/2004 10:00 p 63.0 63.0 63.0 63.1 62.9 100 63.0 0.0 0.0 --- 0.00 29.967
10/02/2004 10:30 p 62.9 62.9 62.9 63.0 62.9 100 62.9 0.0 0.0 --- 0.00 29.967
10/02/2004 11:00 p 62.9 62.9 62.9 63.0 62.9 100 62.9 0.0 0.0 --- 0.00 29.971
10/02/2004 11:30 p 63.0 63.0 63.0 63.1 62.9 100 63.0 0.0 0.0 --- 0.00 29.971
10/03/2004 12:00 a 63.0 63.0 63.0 63.1 63.0 100 63.0 0.0 0.0 --- 0.00 29.961
10/03/2004 12:30 a 62.8 62.8 62.8 63.0 62.7 100 62.8 0.0 0.0 --- 0.00 29.959
10/03/2004 1:00 a 62.9 62.9 62.9 63.2 62.5 88 59.3 0.0 3.0 ESE 0.00 29.971
10/03/2004 1:30 a 61.9 61.9 61.9 62.5 61.1 81 56.0 0.0 3.0 ESE 0.00 29.978
10/03/2004 2:00 a 60.7 60.7 60.7 61.1 60.0 80 54.5 0.0 2.0 ESE 0.00 29.985
10/03/2004 2:30 a 59.5 59.5 59.5 60.0 59.3 81 53.7 0.0 1.0 ESE 0.00 29.997
10/03/2004 3:00 a 59.5 59.5 59.5 59.5 59.4 80 53.3 0.0 2.0 ESE 0.00 30.006
10/03/2004 3:30 a 58.9 58.9 58.9 59.4 58.3 81 53.1 0.0 2.0 ESE 0.00 30.014
10/03/2004 4:00 a 57.8 57.8 57.8 58.3 57.6 83 52.7 0.0 1.0 ESE 0.00 30.022
10/03/2004 4:30 a 57.5 57.5 57.5 57.8 57.1 84 52.7 0.0 1.0 ESE 0.00 30.023
10/03/2004 5:00 a 57.1 57.1 57.1 57.2 57.0 85 52.6 0.0 2.0 ESE 0.00 30.020
10/03/2004 5:30 a 56.6 56.6 56.6 57.0 55.9 79 50.2 0.0 2.0 --- 0.00 30.025
10/03/2004 6:00 a 55.2 55.2 55.2 55.9 54.3 78 48.5 0.0 2.0 SE 0.00 30.034
10/03/2004 6:30 a 53.5 53.5 53.5 54.3 52.9 81 47.8 0.0 1.0 SE 0.00 30.051
10/03/2004 7:00 a 52.2 52.2 52.2 52.9 51.3 86 48.1 0.0 1.0 SE 0.00 30.060
10/03/2004 7:30 a 50.8 50.8 50.8 51.3 50.6 88 47.4 0.0 0.0 --- 0.00 30.068
10/03/2004 8:00 a 51.7 51.7 51.7 52.5 51.0 83 46.7 0.0 1.0 --- 0.00 30.078
10/03/2004 8:30 a 52.9 52.9 52.9 53.7 52.5 79 46.6 0.0 1.0 E 0.00 30.083
10/03/2004 9:00 a 54.7 54.7 54.7 55.2 53.7 72 45.9 0.0 2.0 ESE 0.00 30.091
10/03/2004 9:30 a 55.7 55.7 55.7 56.1 55.2 70 46.1 0.0 3.0 ESE 0.00 30.095
10/03/2004 10:00 a 56.4 56.4 56.4 56.9 56.1 66 45.2 0.0 2.0 SSE 0.00 30.096
10/03/2004 10:30 a 57.8 57.8 57.8 58.3 56.9 67 46.9 0.0 2.0 SE 0.00 30.092
10/03/2004 11:00 a 59.4 59.4 59.4 63.3 58.1 59 45.1 0.0 3.0 SE 0.00 30.081
10/03/2004 11:30 a 59.8 59.8 59.8 61.6 59.4 62 46.8 0.0 2.0 E 0.00 30.072
10/03/2004 12:00 p 60.3 60.3 60.3 60.9 59.6 58 45.5 0.0 2.0 ESE 0.00 30.064
10/03/2004 12:30 p 61.2 61.2 61.2 61.7 60.9 55 44.9 0.0 2.0 SE 0.00 30.056
10/03/2004 1:00 p 68.8 71.7 71.7 80.1 61.7 28 36.9 0.0 3.0 SE 0.00 30.044
10/03/2004 1:30 p 73.0 74.8 74.8 81.7 67.5 39 48.2 0.0 2.0 SE 0.00 30.033
10/03/2004 2:00 p 66.9 66.9 66.9 67.5 66.7 44 44.3 0.0 2.0 ESE 0.00 30.021
10/03/2004 2:30 p 67.3 67.3 67.3 67.6 67.1 44 44.7 0.0 3.0 ENE 0.00 30.017
10/03/2004 3:00 p 67.2 67.2 67.2 67.4 66.9 46 45.7 0.0 3.0 NNE 0.00 30.006
10/03/2004 3:30 p 66.5 66.5 66.5 67.0 66.3 48 46.2 0.0 2.0 NNE 0.00 30.001
10/03/2004 4:00 p 66.2 66.2 66.2 66.4 66.1 44 43.7 0.0 0.0 --- 0.00 29.995
10/03/2004 4:30 p 65.3 65.3 65.3 66.1 64.6 49 45.7 0.0 0.0 --- 0.00 29.989
10/03/2004 5:00 p 63.7 63.7 63.7 64.7 62.6 53 46.3 0.0 0.0 --- 0.00 29.985
10/03/2004 5:30 p 61.7 61.7 61.7 62.6 60.8 62 48.6 0.0 0.0 --- 0.00 29.985
10/03/2004 6:00 p 60.0 60.0 60.0 60.8 59.3 63 47.4 0.0 0.0 --- 0.00 29.980
10/03/2004 6:30 p 58.1 58.1 58.1 59.3 57.0 77 50.9 0.0 0.0 --- 0.00 29.980
10/03/2004 7:00 p 55.8 55.8 55.8 56.9 54.7 82 50.4 0.0 0.0 --- 0.00 29.979
10/03/2004 7:30 p 53.8 53.8 53.8 54.7 53.0 88 50.3 0.0 0.0 --- 0.00 29.979
10/03/2004 8:00 p 52.5 52.5 52.5 53.0 51.8 93 50.5 0.0 0.0 --- 0.00 29.986
10/03/2004 8:30 p 51.8 51.8 51.8 52.1 51.4 94 50.1 0.0 0.0 --- 0.00 29.995
10/03/2004 9:00 p 50.9 50.9 50.9 51.4 50.7 97 50.1 0.0 0.0 --- 0.00 30.002
10/03/2004 9:30 p 50.5 50.5 50.5 50.9 50.1 97 49.7 0.0 0.0 --- 0.00 30.001
10/03/2004 10:00 p 49.7 49.7 49.7 50.1 49.5 100 49.7 0.0 0.0 --- 0.00 29.994
10/03/2004 10:30 p 49.1 49.1 49.1 49.5 48.8 100 49.1 0.0 0.0 --- 0.00 29.995
10/03/2004 11:00 p 48.3 48.3 48.3 48.8 48.0 100 48.3 0.0 0.0 --- 0.00 29.995
10/03/2004 11:30 p 47.8 47.8 47.8 48.0 47.5 100 47.8 0.0 0.0 --- 0.00 29.994
10/04/2004 12:00 a 47.2 47.2 47.2 47.5 47.0 100 47.2 0.0 0.0 --- 0.00 29.988
10/04/2004 12:30 a 46.8 46.8 46.8 46.9 46.6 100 46.8 0.0 0.0 --- 0.00 29.978
10/04/2004 1:00 a 46.3 46.3 46.3 46.6 46.1 100 46.3 0.0 0.0 --- 0.00 29.976
10/04/2004 1:30 a 46.1 46.1 46.1 46.3 45.8 100 46.1 0.0 0.0 --- 0.00 29.977
10/04/2004 2:00 a 45.7 45.7 45.7 45.8 45.6 100 45.7 0.0 0.0 --- 0.00 29.976
10/04/2004 2:30 a 45.6 45.6 45.6 45.6 45.5 100 45.6 0.0 0.0 --- 0.00 29.966
10/04/2004 3:00 a 45.3 45.3 45.3 45.5 45.2 100 45.3 0.0 0.0 --- 0.00 29.955
10/04/2004 3:30 a 45.0 45.0 45.0 45.2 44.8 100 45.0 0.0 0.0 --- 0.00 29.954
10/04/2004 4:00 a 44.6 44.6 44.6 44.8 44.3 100 44.6 0.0 0.0 --- 0.00 29.959
10/04/2004 4:30 a 44.2 44.2 44.2 44.4 44.1 100 44.2 0.0 0.0 --- 0.00 29.950
10/04/2004 5:00 a 43.9 43.9 43.9 44.1 43.7 100 43.9 0.0 0.0 --- 0.00 29.951
10/04/2004 5:30 a 43.5 43.5 43.5 43.7 43.5 100 43.5 0.0 0.0 --- 0.00 29.951
10/04/2004 6:00 a 43.4 43.4 43.4 43.5 43.4 100 43.4 0.0 0.0 --- 0.00 29.960
10/04/2004 6:30 a 43.1 43.1 43.1 43.4 42.8 100 43.1 0.0 0.0 --- 0.00 29.962
10/04/2004 7:00 a 42.8 42.8 42.8 42.9 42.7 100 42.8 0.0 0.0 --- 0.00 29.965
10/04/2004 7:30 a 43.1 43.1 43.1 43.6 42.7 100 43.1 0.0 0.0 --- 0.00 29.966
10/04/2004 8:00 a 44.5 44.5 44.5 46.0 43.6 100 44.5 0.0 0.0 --- 0.00 29.971
10/04/2004 8:30 a 47.8 47.8 47.8 49.5 46.0 100 47.8 0.0 0.0 --- 0.00 29.965
10/04/2004 9:00 a 50.8 50.8 50.8 51.9 49.5 100 50.8 0.0 0.0 --- 0.00 29.966
10/04/2004 9:30 a 53.2 53.2 53.2 54.1 51.9 100 53.2 0.0 0.0 --- 0.00 29.964
10/04/2004 10:00 a 55.1 55.1 55.1 56.9 54.0 97 54.3 0.0 2.0 NNE 0.00 29.960
10/04/2004 10:30 a 58.0 58.0 58.0 59.8 56.9 91 55.4 0.0 2.0 NNE 0.00 29.960
10/04/2004 11:00 a 60.0 60.0 60.0 60.8 59.6 86 55.8 0.0 1.0 --- 0.00 29.952
10/04/2004 11:30 a 61.5 61.5 61.5 62.5 60.8 81 55.6 0.0 2.0 NNE 0.00 29.942
10/04/2004 12:00 p 63.5 63.5 63.5 64.5 62.5 75 55.4 0.0 2.0 SSE 0.00 29.931
10/04/2004 12:30 p 65.6 65.6 65.6 66.7 64.5 71 56.0 0.0 2.0 SSW 0.00 29.913
10/04/2004 1:00 p 70.6 71.2 71.2 76.3 66.7 58 55.7 0.0 1.0 SSW 0.00 29.902
10/04/2004 1:30 p 71.0 71.3 71.3 74.9 69.6 62 57.6 0.0 1.0 SSE 0.00 29.885
10/04/2004 2:00 p 69.8 71.0 71.0 71.5 69.9 54 53.5 0.0 2.0 SSW 0.00 29.872
10/04/2004 2:30 p 70.9 71.6 71.6 71.8 71.4 49 51.4 0.0 2.0 E 0.00 29.855
10/04/2004 3:00 p 69.0 71.4 71.4 71.5 71.3 45 49.0 0.0 3.0 NNW 0.00 29.845
10/04/2004 3:30 p 69.0 71.1 71.1 71.3 70.8 45 48.7 0.0 2.0 NNW 0.00 29.842
10/04/2004 4:00 p 68.0 70.3 70.3 70.8 69.8 44 47.4 0.0 2.0 SSE 0.00 29.834
10/04/2004 4:30 p 67.4 69.3 69.3 69.8 68.4 52 50.9 0.0 2.0 NE 0.00 29.832
10/04/2004 5:00 p 66.8 68.0 68.0 68.6 67.3 54 50.8 0.0 2.0 ENE 0.00 29.840
10/04/2004 5:30 p 66.7 66.7 66.7 67.3 66.3 55 50.0 0.0 1.0 ENE 0.00 29.841
10/04/2004 6:00 p 65.3 65.3 65.3 66.3 63.9 57 49.7 0.0 0.0 --- 0.00 29.846
10/04/2004 6:30 p 62.5 62.5 62.5 63.9 61.0 72 53.4 0.0 0.0 --- 0.00 29.851
10/04/2004 7:00 p 59.6 59.6 59.6 61.0 58.4 75 51.7 0.0 0.0 --- 0.00 29.858
10/04/2004 7:30 p 57.5 57.5 57.5 58.4 56.7 80 51.4 0.0 0.0 --- 0.00 29.857
10/04/2004 8:00 p 56.2 56.2 56.2 56.7 55.6 85 51.8 0.0 0.0 --- 0.00 29.864
10/04/2004 8:30 p 55.3 55.3 55.3 55.6 54.9 89 52.1 0.0 0.0 --- 0.00 29.876
10/04/2004 9:00 p 54.3 54.3 54.3 54.9 53.8 91 51.7 0.0 0.0 --- 0.00 29.882
10/04/2004 9:30 p 53.4 53.4 53.4 53.8 52.9 94 51.7 0.0 0.0 --- 0.00 29.885
10/04/2004 10:00 p 52.8 52.8 52.8 53.0 52.6 97 52.0 0.0 0.0 --- 0.00 29.907
10/04/2004 10:30 p 55.4 55.4 55.4 57.7 52.9 84 50.7 0.0 1.0 NE 0.00 29.926
10/04/2004 11:00 p 59.6 59.6 59.6 60.4 57.7 66 48.2 0.0 3.0 SE 0.00 29.944
10/04/2004 11:30 p 60.1 60.1 60.1 60.4 59.8 60 46.2 0.0 2.0 E 0.00 29.949
10/05/2004 12:00 a 59.7 59.7 59.7 59.9 59.2 60 45.8 0.0 1.0 ESE 0.00 29.954
10/05/2004 12:30 a 59.0 59.0 59.0 59.2 58.5 61 45.6 0.0 5.0 ESE 0.00 29.959
10/05/2004 1:00 a 57.8 57.8 57.8 58.5 57.2 65 46.1 0.0 2.0 ESE 0.00 29.971
10/05/2004 1:30 a 57.0 57.0 57.0 57.2 56.7 64 45.0 0.0 2.0 ESE 0.00 29.983
10/05/2004 2:00 a 57.1 57.1 57.1 57.3 56.9 60 43.4 0.0 3.0 SE 0.00 29.992
10/05/2004 2:30 a 56.7 56.7 56.7 57.3 56.5 58 42.1 0.0 2.0 SE 0.00 30.001
10/05/2004 3:00 a 56.5 56.5 56.5 56.7 56.1 57 41.5 0.0 2.0 SE 0.00 30.003
10/05/2004 3:30 a 55.7 55.7 55.7 56.1 55.2 57 40.7 0.0 3.0 ESE 0.00 30.015
10/05/2004 4:00 a 54.6 54.6 54.6 55.2 54.1 60 41.0 0.0 2.0 ESE 0.00 30.033
10/05/2004 4:30 a 53.5 53.5 53.5 54.1 52.6 62 40.8 0.0 2.0 ESE 0.00 30.047
10/05/2004 5:00 a 52.0 52.0 52.0 52.6 51.2 66 41.0 0.0 2.0 ESE 0.00 30.064
10/05/2004 5:30 a 50.5 50.5 50.5 51.3 49.9 71 41.5 0.0 0.0 --- 0.00 30.082
10/05/2004 6:00 a 48.9 48.9 48.9 49.9 48.2 77 42.0 0.0 0.0 --- 0.00 30.098
10/05/2004 6:30 a 47.0 47.0 47.0 48.4 45.7 85 42.7 0.0 0.0 --- 0.00 30.111
10/05/2004 7:00 a 46.6 46.6 46.6 47.2 45.6 78 40.1 0.0 0.0 --- 0.00 30.131
10/05/2004 7:30 a 47.5 47.5 47.5 47.7 47.2 75 40.0 0.0 1.0 --- 0.00 30.144
10/05/2004 8:00 a 48.2 48.2 48.2 48.8 47.7 72 39.6 0.0 2.0 ESE 0.00 30.158
10/05/2004 8:30 a 49.3 49.3 49.3 49.7 48.8 70 39.9 0.0 2.0 SE 0.00 30.172
10/05/2004 9:00 a 50.7 50.7 50.7 51.4 49.7 66 39.8 0.0 3.0 SE 0.00 30.180
10/05/2004 9:30 a 51.9 51.9 51.9 52.4 51.4 62 39.3 0.0 3.0 SE 0.00 30.187
10/05/2004 10:00 a 52.4 52.4 52.4 52.7 52.3 53 35.8 0.0 3.0 SE 0.00 30.188
10/05/2004 10:30 a 53.2 53.2 53.2 53.6 52.7 51 35.6 0.0 3.0 ESE 0.00 30.190
10/05/2004 11:00 a 53.4 53.4 53.4 53.6 53.3 48 34.2 0.0 3.0 SW 0.00 30.189
10/05/2004 11:30 a 53.9 53.9 53.9 54.2 53.4 52 36.7 0.0 3.0 ESE 0.00 30.183
10/05/2004 12:00 p 54.7 54.7 54.7 55.2 54.2 45 33.8 0.0 4.0 ESE 0.00 30.178
10/05/2004 12:30 p 55.5 55.5 55.5 55.8 55.2 45 34.5 0.0 3.0 ESE 0.00 30.178
10/05/2004 1:00 p 65.2 65.2 65.2 72.7 55.7 25 28.5 0.0 3.0 SE 0.00 30.176
10/05/2004 1:30 p 66.0 66.0 66.0 73.7 59.9 35 37.6 0.0 3.0 SE 0.00 30.172
10/05/2004 2:00 p 59.5 59.5 59.5 59.9 59.4 36 32.5 0.0 3.0 ESE 0.00 30.161
10/05/2004 2:30 p 59.6 59.6 59.6 59.8 59.2 39 34.6 0.0 3.0 SE 0.00 30.154
10/05/2004 3:00 p 59.5 59.5 59.5 59.7 59.3 39 34.5 0.0 2.0 SE 0.00 30.149
10/05/2004 3:30 p 59.2 59.2 59.2 59.4 58.9 36 32.3 0.0 2.0 ESE 0.00 30.152
10/05/2004 4:00 p 58.7 58.7 58.7 58.9 58.3 39 33.8 0.0 2.0 ESE 0.00 30.144
10/05/2004 4:30 p 57.8 57.8 57.8 58.3 57.3 44 36.0 0.0 4.0 ESE 0.00 30.145
10/05/2004 5:00 p 56.7 56.7 56.7 57.3 56.4 44 35.1 0.0 2.0 ESE 0.00 30.152
10/05/2004 5:30 p 56.2 56.2 56.2 56.5 55.9 42 33.4 0.0 1.0 ENE 0.00 30.155
10/05/2004 6:00 p 55.0 55.0 55.0 55.9 53.4 53 38.2 0.0 0.0 --- 0.00 30.162
10/05/2004 6:30 p 52.1 52.1 52.1 53.3 51.0 65 40.7 0.0 0.0 --- 0.00 30.165
10/05/2004 7:00 p 49.4 49.4 49.4 51.0 47.9 75 41.8 0.0 0.0 --- 0.00 30.172
10/05/2004 7:30 p 46.9 46.9 46.9 47.9 46.1 80 41.1 0.0 0.0 --- 0.00 30.173
10/05/2004 8:00 p 45.3 45.3 45.3 46.1 44.8 86 41.4 0.0 0.0 --- 0.00 30.182
10/05/2004 8:30 p 44.2 44.2 44.2 44.8 43.7 90 41.5 0.0 0.0 --- 0.00 30.187
10/05/2004 9:00 p 43.5 43.5 43.5 43.7 43.2 94 41.9 0.0 0.0 --- 0.00 30.195
10/05/2004 9:30 p 43.2 43.2 43.2 43.3 43.0 94 41.6 0.0 0.0 --- 0.00 30.211
10/05/2004 10:00 p 42.4 42.4 42.4 43.1 42.0 95 41.1 0.0 0.0 --- 0.00 30.218
10/05/2004 10:30 p 43.2 43.2 43.2 43.8 42.4 91 40.8 0.0 0.0 --- 0.00 30.223
10/05/2004 11:00 p 42.1 42.1 42.1 42.7 41.7 94 40.5 0.0 0.0 --- 0.00 30.231
10/05/2004 11:30 p 41.2 41.2 41.2 41.7 40.8 94 39.6 0.0 0.0 --- 0.00 30.230
10/06/2004 12:00 a 40.6 40.6 40.6 40.8 40.4 95 39.3 0.0 0.0 --- 0.00 30.233
10/06/2004 12:30 a 40.3 40.3 40.3 40.4 40.1 95 39.0 0.0 0.0 --- 0.00 30.233
10/06/2004 1:00 a 39.9 39.9 39.9 40.1 39.6 96 38.9 0.0 0.0 --- 0.00 30.237
10/06/2004 1:30 a 39.3 39.3 39.3 39.6 39.1 97 38.5 0.0 0.0 --- 0.00 30.243
10/06/2004 2:00 a 38.9 38.9 38.9 39.1 38.8 98 38.4 0.0 0.0 --- 0.00 30.249
10/06/2004 2:30 a 38.4 38.4 38.4 38.8 38.1 99 38.1 0.0 0.0 --- 0.00 30.238
10/06/2004 3:00 a 38.0 38.0 38.0 38.1 37.8 99 37.7 0.0 0.0 --- 0.00 30.232
10/06/2004 3:30 a 37.6 37.6 37.6 37.8 37.5 100 37.6 0.0 0.0 --- 0.00 30.238
10/06/2004 4:00 a 37.4 37.4 37.4 37.6 37.2 100 37.4 0.0 0.0 --- 0.00 30.242
10/06/2004 4:30 a 37.2 37.2 37.2 37.3 37.1 100 37.2 0.0 0.0 --- 0.00 30.248
10/06/2004 5:00 a 37.1 37.1 37.1 37.2 36.8 100 37.1 0.0 0.0 --- 0.00 30.251
10/06/2004 5:30 a 36.6 36.6 36.6 36.8 36.5 100 36.6 0.0 0.0 --- 0.00 30.259
10/06/2004 6:00 a 36.3 36.3 36.3 36.5 36.1 100 36.3 0.0 0.0 --- 0.00 30.262
10/06/2004 6:30 a 36.1 36.1 36.1 36.1 35.9 100 36.1 0.0 0.0 --- 0.00 30.273
10/06/2004 7:00 a 35.9 35.9 35.9 36.0 35.8 100 35.9 0.0 0.0 --- 0.00 30.284
10/06/2004 7:30 a 36.1 36.1 36.1 36.4 35.8 100 36.1 0.0 0.0 --- 0.00 30.294
10/06/2004 8:00 a 37.3 37.3 37.3 38.4 36.4 100 37.3 0.0 0.0 --- 0.00 30.299
10/06/2004 8:30 a 40.0 40.0 40.0 41.8 38.4 100 40.0 0.0 0.0 --- 0.00 30.303
10/06/2004 9:00 a 43.8 43.8 43.8 45.8 41.8 94 42.2 0.0 0.0 --- 0.00 30.304
10/06/2004 9:30 a 47.3 47.3 47.3 48.6 45.8 85 43.0 0.0 0.0 --- 0.00 30.308
10/06/2004 10:00 a 50.0 50.0 50.0 51.7 48.6 73 41.7 0.0 0.0 --- 0.00 30.312
10/06/2004 10:30 a 52.6 52.6 52.6 53.3 51.7 62 40.0 0.0 0.0 --- 0.00 30.309
10/06/2004 11:00 a 54.2 54.2 54.2 55.0 53.3 54 37.9 0.0 0.0 --- 0.00 30.302
10/06/2004 11:30 a 56.1 56.1 56.1 58.5 55.0 47 36.2 0.0 0.0 --- 0.00 30.301
10/06/2004 12:00 p 57.2 57.2 57.2 57.9 56.8 50 38.7 0.0 0.0 --- 0.00 30.291
10/06/2004 12:30 p 57.9 57.9 57.9 58.8 57.4 48 38.3 0.0 0.0 --- 0.00 30.286
10/06/2004 1:00 p 65.0 69.0 69.0 77.6 58.8 26 32.7 0.0 0.0 --- 0.00 30.273
10/06/2004 1:30 p 67.8 70.3 70.3 78.0 64.2 39 44.2 0.0 0.0 --- 0.00 30.260
10/06/2004 2:00 p 63.6 63.6 63.6 64.2 63.4 40 38.9 0.0 0.0 --- 0.00 30.254
10/06/2004 2:30 p 63.7 63.7 63.7 63.9 63.5 40 38.9 0.0 0.0 --- 0.00 30.250
10/06/2004 3:00 p 63.6 63.6 63.6 63.8 63.3 39 38.2 0.0 0.0 --- 0.00 30.245
10/06/2004 3:30 p 63.2 63.2 63.2 63.4 62.9 42 39.8 0.0 0.0 --- 0.00 30.235
10/06/2004 4:00 p 62.7 62.7 62.7 62.9 62.4 45 41.1 0.0 0.0 --- 0.00 30.225
10/06/2004 4:30 p 62.0 62.0 62.0 62.4 61.3 46 41.0 0.0 0.0 --- 0.00 30.223
10/06/2004 5:00 p 60.9 60.9 60.9 61.4 60.3 48 41.1 0.0 0.0 --- 0.00 30.217
10/06/2004 5:30 p 59.2 59.2 59.2 60.3 58.3 52 41.6 0.0 0.0 --- 0.00 30.218
10/06/2004 6:00 p 57.2 57.2 57.2 58.3 56.1 59 43.0 0.0 0.0 --- 0.00 30.223
10/06/2004 6:30 p 54.8 54.8 54.8 56.1 53.6 67 44.1 0.0 0.0 --- 0.00 30.231
10/06/2004 7:00 p 52.4 52.4 52.4 53.6 51.3 74 44.4 0.0 0.0 --- 0.00 30.231
10/06/2004 7:30 p 50.5 50.5 50.5 51.3 50.1 78 43.9 0.0 0.0 --- 0.00 30.232
10/06/2004 8:00 p 49.4 49.4 49.4 50.1 48.6 83 44.5 0.0 0.0 --- 0.00 30.233
10/06/2004 8:30 p 48.0 48.0 48.0 48.6 47.4 86 44.0 0.0 0.0 --- 0.00 30.234
10/06/2004 9:00 p 47.1 47.1 47.1 47.5 46.9 87 43.4 0.0 0.0 --- 0.00 30.235
10/06/2004 9:30 p 46.9 46.9 46.9 47.1 46.6 88 43.5 0.0 0.0 --- 0.00 30.242
10/06/2004 10:00 p 46.4 46.4 46.4 46.7 46.1 90 43.6 0.0 0.0 --- 0.00 30.242
10/06/2004 10:30 p 45.7 45.7 45.7 46.1 45.5 92 43.5 0.0 0.0 --- 0.00 30.244
10/06/2004 11:00 p 45.4 45.4 45.4 45.5 45.1 93 43.5 0.0 0.0 --- 0.00 30.237
10/06/2004 11:30 p 45.0 45.0 45.0 45.1 44.8 93 43.1 0.0 0.0 --- 0.00 30.232
10/07/2004 12:00 a 44.9 44.9 44.9 45.1 44.7 93 43.0 0.0 0.0 --- 0.00 30.230
10/07/2004 12:30 a 44.5 44.5 44.5 44.7 44.3 94 42.9 0.0 0.0 --- 0.00 30.237
10/07/2004 1:00 a 44.2 44.2 44.2 44.3 44.0 95 42.9 0.0 0.0 --- 0.00 30.238
10/07/2004 1:30 a 43.9 43.9 43.9 44.0 43.8 96 42.8 0.0 0.0 --- 0.00 30.234
10/07/2004 2:00 a 43.4 43.4 43.4 43.8 43.1 98 42.9 0.0 0.0 --- 0.00 30.239
10/07/2004 2:30 a 42.9 42.9 42.9 43.1 42.8 99 42.6 0.0 0.0 --- 0.00 30.236
10/07/2004 3:00 a 42.9 42.9 42.9 43.0 42.7 100 42.9 0.0 0.0 --- 0.00 30.229
10/07/2004 3:30 a 42.5 42.5 42.5 42.7 42.3 100 42.5 0.0 0.0 --- 0.00 30.230
10/07/2004 4:00 a 42.2 42.2 42.2 42.3 42.1 100 42.2 0.0 0.0 --- 0.00 30.235
10/07/2004 4:30 a 42.0 42.0 42.0 42.1 41.9 100 42.0 0.0 0.0 --- 0.00 30.236
10/07/2004 5:00 a 41.8 41.8 41.8 41.9 41.7 100 41.8 0.0 0.0 --- 0.00 30.243
10/07/2004 5:30 a 41.6 41.6 41.6 41.7 41.4 100 41.6 0.0 0.0 --- 0.00 30.246
10/07/2004 6:00 a 41.4 41.4 41.4 41.5 41.3 100 41.4 0.0 0.0 --- 0.00 30.254
10/07/2004 6:30 a 41.3 41.3 41.3 41.4 41.2 100 41.3 0.0 0.0 --- 0.00 30.265
10/07/2004 7:00 a 41.1 41.1 41.1 41.3 41.1 100 41.1 0.0 0.0 --- 0.00 30.273
10/07/2004 7:30 a 41.3 41.3 41.3 41.6 41.1 100 41.3 0.0 0.0 --- 0.00 30.277
10/07/2004 8:00 a 42.6 42.6 42.6 43.8 41.6 100 42.6 0.0 0.0 --- 0.00 30.282
10/07/2004 8:30 a 45.3 45.3 45.3 47.2 43.8 100 45.3 0.0 0.0 --- 0.00 30.283
10/07/2004 9:00 a 50.0 50.0 50.0 52.4 47.2 89 46.9 0.0 0.0 --- 0.00 30.286
10/07/2004 9:30 a 53.8 53.8 53.8 55.2 52.4 80 47.8 0.0 0.0 --- 0.00 30.293
10/07/2004 10:00 a 56.8 56.8 56.8 58.1 55.2 72 47.9 0.0 0.0 --- 0.00 30.291
10/07/2004 10:30 a 59.4 59.4 59.4 60.8 58.1 64 47.2 0.0 0.0 --- 0.00 30.287
10/07/2004 11:00 a 62.3 62.3 62.3 63.2 60.8 58 47.4 0.0 0.0 --- 0.00 30.285
10/07/2004 11:30 a 65.1 65.1 65.1 69.9 63.2 47 44.4 0.0 0.0 --- 0.00 30.281
10/07/2004 12:00 p 66.8 66.8 66.8 68.7 66.4 50 47.6 0.0 0.0 --- 0.00 30.278
10/07/2004 12:30 p 67.3 67.3 67.3 67.9 66.5 47 46.4 0.0 0.0 --- 0.00 30.272
10/07/2004 1:00 p 76.0 78.1 78.1 86.0 68.0 27 41.4 0.0 0.0 --- 0.00 30.257
10/07/2004 1:30 p 79.0 79.3 79.3 86.9 73.6 43 54.9 0.0 0.0 --- 0.00 30.245
10/07/2004 2:00 p 71.8 73.3 73.3 73.6 72.9 44 50.1 0.0 0.0 --- 0.00 30.236
10/07/2004 2:30 p 72.4 73.6 73.6 73.7 73.4 42 49.1 0.0 0.0 --- 0.00 30.235
10/07/2004 3:00 p 71.6 73.4 73.4 73.6 73.1 43 49.6 0.0 0.0 --- 0.00 30.229
10/07/2004 3:30 p 71.8 72.9 72.9 73.2 72.7 44 49.7 0.0 0.0 --- 0.00 30.229
10/07/2004 4:00 p 70.3 72.3 72.3 72.8 71.7 43 48.6 0.0 0.0 --- 0.00 30.222
10/07/2004 4:30 p 69.0 71.2 71.2 71.8 70.5 45 48.8 0.0 0.0 --- 0.00 30.220
10/07/2004 5:00 p 68.0 70.2 70.2 70.5 69.7 46 48.5 0.0 0.0 --- 0.00 30.219
10/07/2004 5:30 p 67.2 68.4 68.4 69.6 67.1 56 52.1 0.0 0.0 --- 0.00 30.221
10/07/2004 6:00 p 65.9 65.9 65.9 67.1 64.7 63 53.0 0.0 0.0 --- 0.00 30.220
10/07/2004 6:30 p 63.3 63.3 63.3 64.6 61.8 73 54.5 0.0 0.0 --- 0.00 30.225
10/07/2004 7:00 p 60.5 60.5 60.5 61.8 59.2 77 53.3 0.0 0.0 --- 0.00 30.227
10/07/2004 7:30 p 58.5 58.5 58.5 59.2 57.8 84 53.7 0.0 0.0 --- 0.00 30.232
10/07/2004 8:00 p 57.1 57.1 57.1 57.8 56.4 89 53.9 0.0 0.0 --- 0.00 30.236
10/07/2004 8:30 p 56.0 56.0 56.0 56.5 55.3 92 53.7 0.0 0.0 --- 0.00 30.237
10/07/2004 9:00 p 55.2 55.2 55.2 55.4 54.9 93 53.2 0.0 0.0 --- 0.00 30.241
10/07/2004 9:30 p 54.2 54.2 54.2 54.8 53.8 96 53.1 0.0 0.0 --- 0.00 30.244
10/07/2004 10:00 p 53.5 53.5 53.5 53.8 53.2 100 53.5 0.0 0.0 --- 0.00 30.248
10/07/2004 10:30 p 53.1 53.1 53.1 53.4 52.7 100 53.1 0.0 0.0 --- 0.00 30.253
10/07/2004 11:00 p 52.4 52.4 52.4 52.7 51.9 100 52.4 0.0 0.0 --- 0.00 30.251
10/07/2004 11:30 p 51.7 51.7 51.7 52.0 51.4 100 51.7 0.0 0.0 --- 0.00 30.253
10/08/2004 12:00 a 51.0 51.0 51.0 51.4 50.6 100 51.0 0.0 0.0 --- 0.00 30.257
10/08/2004 12:30 a 50.5 50.5 50.5 50.7 50.3 100 50.5 0.0 0.0 --- 0.00 30.254
10/08/2004 1:00 a 50.0 50.0 50.0 50.3 49.8 100 50.0 0.0 0.0 --- 0.00 30.256
10/08/2004 1:30 a 49.6 49.6 49.6 49.9 49.3 100 49.6 0.0 0.0 --- 0.00 30.255
10/08/2004 2:00 a 49.1 49.1 49.1 49.3 49.0 100 49.1 0.0 0.0 --- 0.00 30.251
10/08/2004 2:30 a 48.8 48.8 48.8 49.1 48.6 100 48.8 0.0 0.0 --- 0.00 30.246
10/08/2004 3:00 a 48.4 48.4 48.4 48.6 48.2 100 48.4 0.0 0.0 --- 0.00 30.241
10/08/2004 3:30 a 48.0 48.0 48.0 48.2 47.7 100 48.0 0.0 0.0 --- 0.00 30.238
10/08/2004 4:00 a 47.6 47.6 47.6 47.7 47.5 100 47.6 0.0 0.0 --- 0.00 30.241
10/08/2004 4:30 a 47.3 47.3 47.3 47.5 47.1 100 47.3 0.0 0.0 --- 0.00 30.234
10/08/2004 5:00 a 47.0 47.0 47.0 47.1 46.8 100 47.0 0.0 0.0 --- 0.00 30.237
10/08/2004 5:30 a 46.8 46.8 46.8 46.9 46.6 100 46.8 0.0 0.0 --- 0.00 30.240
10/08/2004 6:00 a 46.5 46.5 46.5 46.6 46.4 100 46.5 0.0 0.0 --- 0.00 30.240
10/08/2004 6:30 a 46.3 46.3 46.3 46.4 46.1 100 46.3 0.0 0.0 --- 0.00 30.241
10/08/2004 7:00 a 46.1 46.1 46.1 46.3 46.0 100 46.1 0.0 0.0 --- 0.00 30.242
10/08/2004 7:30 a 46.3 46.3 46.3 46.6 46.0 100 46.3 0.0 0.0 --- 0.00 30.248
10/08/2004 8:00 a 47.4 47.4 47.4 48.4 46.6 100 47.4 0.0 0.0 --- 0.00 30.258
10/08/2004 8:30 a 49.7 49.7 49.7 51.1 48.5 100 49.7 0.0 0.0 --- 0.00 30.260
10/08/2004 9:00 a 53.4 53.4 53.4 55.4 51.1 100 53.4 0.0 0.0 --- 0.00 30.265
10/08/2004 9:30 a 56.3 56.3 56.3 57.3 55.4 100 56.3 0.0 0.0 --- 0.00 30.263
10/08/2004 10:00 a 58.7 58.7 58.7 60.1 57.3 91 56.1 0.0 0.0 --- 0.00 30.264
10/08/2004 10:30 a 61.6 61.6 61.6 63.1 60.1 78 54.7 0.0 1.0 ESE 0.00 30.248
10/08/2004 11:00 a 64.5 64.5 64.5 65.4 63.1 73 55.7 0.0 2.0 ESE 0.00 30.240
10/08/2004 11:30 a 67.2 67.2 67.2 70.4 65.4 62 53.8 0.0 1.0 ESE 0.00 30.238
10/08/2004 12:00 p 70.0 69.9 69.9 70.6 69.5 61 55.9 0.0 2.0 ESE 0.00 30.226
10/08/2004 12:30 p 70.6 71.2 71.2 72.2 70.5 58 55.7 0.0 3.0 ESE 0.00 30.212
10/08/2004 1:00 p 81.2 81.6 81.6 86.3 72.2 36 52.1 0.0 3.0 N 0.00 30.200
10/08/2004 1:30 p 81.0 80.5 80.5 86.7 76.2 48 59.0 0.0 3.0 NNW 0.00 30.185
10/08/2004 2:00 p 75.4 76.2 76.2 76.3 76.1 47 54.5 0.0 2.0 NW 0.00 30.172
10/08/2004 2:30 p 75.0 76.2 76.2 76.3 76.0 45 53.3 0.0 3.0 NW 0.00 30.158
10/08/2004 3:00 p 75.6 75.8 75.8 76.2 75.4 48 54.7 0.0 2.0 NNW 0.00 30.147
10/08/2004 3:30 p 74.4 75.2 75.2 75.5 74.7 47 53.6 0.0 2.0 NNW 0.00 30.144
10/08/2004 4:00 p 74.0 74.2 74.2 74.7 73.9 50 54.4 0.0 1.0 WNW 0.00 30.135
10/08/2004 4:30 p 74.0 73.5 73.5 73.9 72.9 53 55.3 0.0 2.0 WNW 0.00 30.121
10/08/2004 5:00 p 71.5 71.8 71.8 72.9 71.1 55 54.8 0.0 0.0 --- 0.00 30.120
10/08/2004 5:30 p 70.0 70.3 70.3 71.1 69.3 61 56.2 0.0 0.0 --- 0.00 30.120
10/08/2004 6:00 p 68.0 68.2 68.2 69.3 67.0 67 56.8 0.0 0.0 --- 0.00 30.114
10/08/2004 6:30 p 65.8 65.8 65.8 67.0 64.5 75 57.7 0.0 0.0 --- 0.00 30.119
10/08/2004 7:00 p 63.5 63.5 63.5 64.5 63.0 78 56.5 0.0 0.0 --- 0.00 30.128
10/08/2004 7:30 p 63.5 63.5 63.5 63.7 63.1 80 57.2 0.0 0.0 --- 0.00 30.131
10/08/2004 8:00 p 63.9 63.9 63.9 64.1 63.4 81 58.0 0.0 0.0 --- 0.00 30.138
10/08/2004 8:30 p 62.3 62.3 62.3 63.4 61.4 85 57.7 0.0 0.0 --- 0.00 30.144
10/08/2004 9:00 p 61.0 61.0 61.0 61.4 60.6 87 57.1 0.0 0.0 --- 0.00 30.145
10/08/2004 9:30 p 60.2 60.2 60.2 60.6 59.6 88 56.6 0.0 0.0 --- 0.00 30.143
10/08/2004 10:00 p 58.8 58.8 58.8 59.6 58.0 92 56.5 0.0 0.0 --- 0.00 30.144
10/08/2004 10:30 p 57.4 57.4 57.4 57.9 56.8 95 56.0 0.0 0.0 --- 0.00 30.145
10/08/2004 11:00 p 56.4 56.4 56.4 56.9 55.8 97 55.6 0.0 0.0 --- 0.00 30.140
10/08/2004 11:30 p 55.5 55.5 55.5 55.8 55.1 100 55.5 0.0 0.0 --- 0.00 30.133
10/09/2004 12:00 a 54.5 54.5 54.5 55.0 54.1 100 54.5 0.0 0.0 --- 0.00 30.129
10/09/2004 12:30 a 53.7 53.7 53.7 54.1 53.3 100 53.7 0.0 0.0 --- 0.00 30.126
10/09/2004 1:00 a 53.0 53.0 53.0 53.4 52.6 100 53.0 0.0 0.0 --- 0.00 30.119
10/09/2004 1:30 a 52.2 52.2 52.2 52.7 51.7 100 52.2 0.0 0.0 --- 0.00 30.113
10/09/2004 2:00 a 51.6 51.6 51.6 51.8 51.4 100 51.6 0.0 0.0 --- 0.00 30.108
10/09/2004 2:30 a 51.3 51.3 51.3 51.4 51.1 100 51.3 0.0 0.0 --- 0.00 30.095
10/09/2004 3:00 a 50.8 50.8 50.8 51.1 50.7 100 50.8 0.0 0.0 --- 0.00 30.089
10/09/2004 3:30 a 50.7 50.7 50.7 50.8 50.6 100 50.7 0.0 0.0 --- 0.00 30.079
10/09/2004 4:00 a 50.5 50.5 50.5 50.6 50.3 100 50.5 0.0 0.0 --- 0.00 30.075
10/09/2004 4:30 a 50.0 50.0 50.0 50.3 49.8 100 50.0 0.0 0.0 --- 0.00 30.066
10/09/2004 5:00 a 49.7 49.7 49.7 49.8 49.6 100 49.7 0.0 0.0 --- 0.00 30.066
10/09/2004 5:30 a 49.7 49.7 49.7 49.8 49.5 100 49.7 0.0 0.0 --- 0.00 30.068
10/09/2004 6:00 a 49.4 49.4 49.4 49.6 49.3 100 49.4 0.0 0.0 --- 0.00 30.069
10/09/2004 6:30 a 49.2 49.2 49.2 49.5 49.1 100 49.2 0.0 0.0 --- 0.00 30.066
10/09/2004 7:00 a 50.2 50.2 50.2 51.0 49.5 100 50.2 0.0 0.0 --- 0.00 30.066
10/09/2004 7:30 a 51.9 51.9 51.9 52.8 51.0 100 51.9 0.0 0.0 --- 0.00 30.074
10/09/2004 8:00 a 53.8 53.8 53.8 54.8 52.8 100 53.8 0.0 0.0 --- 0.00 30.082
10/09/2004 8:30 a 55.3 55.3 55.3 56.1 54.8 100 55.3 0.0 0.0 --- 0.00 30.080
10/09/2004 9:00 a 56.7 56.7 56.7 57.1 56.1 100 56.7 0.0 0.0 --- 0.00 30.083
10/09/2004 9:30 a 57.8 57.8 57.8 58.7 57.1 100 57.8 0.0 0.0 --- 0.00 30.083
10/09/2004 10:00 a 59.2 59.2 59.2 60.1 58.6 100 59.2 0.0 0.0 --- 0.00 30.073
10/09/2004 10:30 a 60.9 60.9 60.9 62.3 60.1 94 59.2 0.0 1.0 --- 0.00 30.061
10/09/2004 11:00 a 63.8 63.8 63.8 64.4 62.3 84 58.9 0.0 1.0 --- 0.00 30.052
10/09/2004 11:30 a 64.9 64.9 64.9 65.5 64.3 81 58.9 0.0 2.0 SSE 0.00 30.042
10/09/2004 12:00 p 66.6 66.6 66.6 67.3 65.5 75 58.4 0.0 2.0 SSE 0.00 30.036
10/09/2004 12:30 p 68.0 68.2 68.2 69.0 67.3 70 58.1 0.0 2.0 N 0.00 30.019
10/09/2004 1:00 p 72.0 71.6 71.6 74.4 68.6 64 58.8 0.0 3.0 NNW 0.00 30.006
10/09/2004 1:30 p 72.0 71.9 71.9 72.5 71.3 62 58.2 0.0 2.0 ENE 0.00 29.992
10/09/2004 2:00 p 72.0 71.6 71.6 72.2 71.1 61 57.5 0.0 1.0 E 0.00 29.980
10/09/2004 2:30 p 72.0 71.5 71.5 72.2 71.0 60 56.9 0.0 2.0 E 0.00 29.966
10/09/2004 3:00 p 71.0 70.8 70.8 71.2 70.5 64 58.0 0.0 2.0 E 0.00 29.957
10/09/2004 3:30 p 70.0 70.1 70.1 70.5 69.7 65 57.8 0.0 2.0 NNE 0.00 29.946
10/09/2004 4:00 p 69.0 69.2 69.2 69.7 68.8 68 58.2 0.0 1.0 N 0.00 29.939
10/09/2004 4:30 p 68.2 68.3 68.3 68.8 67.7 71 58.5 0.0 1.0 --- 0.00 29.931
10/09/2004 5:00 p 67.4 67.4 67.4 67.8 67.1 73 58.5 0.0 0.0 --- 0.00 29.928
10/09/2004 5:30 p 66.6 66.6 66.6 67.1 66.1 77 59.2 0.0 0.0 --- 0.00 29.926
10/09/2004 6:00 p 65.3 65.3 65.3 66.1 64.7 79 58.6 0.0 0.0 --- 0.00 29.914
10/09/2004 6:30 p 63.8 63.8 63.8 64.8 62.7 82 58.2 0.0 0.0 --- 0.00 29.921
10/09/2004 7:00 p 61.8 61.8 61.8 62.7 61.2 86 57.6 0.0 0.0 --- 0.00 29.922
10/09/2004 7:30 p 60.6 60.6 60.6 61.2 59.8 90 57.7 0.0 0.0 --- 0.00 29.923
10/09/2004 8:00 p 59.4 59.4 59.4 59.8 59.2 94 57.7 0.0 0.0 --- 0.00 29.922
10/09/2004 8:30 p 59.5 59.5 59.5 59.8 59.3 92 57.2 0.0 0.0 --- 0.00 29.920
10/09/2004 9:00 p 59.1 59.1 59.1 59.3 58.9 94 57.4 0.0 0.0 --- 0.00 29.925
10/09/2004 9:30 p 58.5 58.5 58.5 58.9 58.2 97 57.7 0.0 0.0 --- 0.00 29.925
10/09/2004 10:00 p 58.1 58.1 58.1 58.3 57.7 96 57.0 0.0 0.0 --- 0.00 29.927
10/09/2004 10:30 p 58.1 58.1 58.1 58.2 58.0 98 57.5 0.0 0.0 --- 0.00 29.928
10/09/2004 11:00 p 58.3 58.3 58.3 58.3 58.2 100 58.3 0.0 0.0 --- 0.00 29.919
10/09/2004 11:30 p 58.1 58.1 58.1 58.3 58.0 100 58.1 0.0 0.0 --- 0.00 29.915
10/10/2004 12:00 a 57.7 57.7 57.7 58.0 57.6 100 57.7 0.0 0.0 --- 0.00 29.913
10/10/2004 12:30 a 57.5 57.5 57.5 57.7 57.3 100 57.5 0.0 0.0 --- 0.00 29.900
10/10/2004 1:00 a 57.2 57.2 57.2 57.3 57.1 100 57.2 0.0 0.0 --- 0.00 29.896
10/10/2004 1:30 a 57.4 57.4 57.4 57.5 57.2 100 57.4 0.0 0.0 --- 0.00 29.888
10/10/2004 2:00 a 57.3 57.3 57.3 57.5 56.8 100 57.3 0.0 0.0 --- 0.00 29.877
10/10/2004 2:30 a 56.6 56.6 56.6 56.8 56.4 100 56.6 0.0 0.0 --- 0.00 29.866
10/10/2004 3:00 a 56.4 56.4 56.4 56.5 56.2 100 56.4 0.0 0.0 --- 0.00 29.851
10/10/2004 3:30 a 55.7 55.7 55.7 56.2 55.4 100 55.7 0.0 0.0 --- 0.00 29.855
10/10/2004 4:00 a 55.2 55.2 55.2 55.4 54.9 100 55.2 0.0 0.0 --- 0.00 29.845
10/10/2004 4:30 a 54.5 54.5 54.5 54.9 54.2 100 54.5 0.0 0.0 --- 0.00 29.855
10/10/2004 5:00 a 53.9 53.9 53.9 54.2 53.6 100 53.9 0.0 0.0 --- 0.00 29.863
10/10/2004 5:30 a 53.6 53.6 53.6 53.8 53.4 100 53.6 0.0 0.0 --- 0.00 29.871
10/10/2004 6:00 a 54.1 54.1 54.1 54.4 53.7 100 54.1 0.0 0.0 --- 0.00 29.871
10/10/2004 6:30 a 54.7 54.7 54.7 54.9 54.4 100 54.7 0.0 0.0 --- 0.00 29.870
10/10/2004 7:00 a 54.8 54.8 54.8 55.0 54.6 100 54.8 0.0 0.0 --- 0.00 29.882
10/10/2004 7:30 a 55.1 55.1 55.1 55.2 55.0 100 55.1 0.0 0.0 --- 0.00 29.891
10/10/2004 8:00 a 55.0 55.0 55.0 55.2 54.8 100 55.0 0.0 2.0 E 0.01 29.897
10/10/2004 8:30 a 54.7 54.7 54.7 54.9 54.5 100 54.7 0.0 0.0 --- 0.00 29.894
10/10/2004 9:00 a 56.0 56.0 56.0 56.6 54.8 100 56.0 0.0 0.0 --- 0.00 29.902
10/10/2004 9:30 a 56.4 56.4 56.4 57.3 55.7 100 56.4 0.0 0.0 --- 0.00 29.904
10/10/2004 10:00 a 57.6 57.6 57.6 58.0 57.3 95 56.2 0.0 3.0 ESE 0.00 29.904
10/10/2004 10:30 a 58.7 58.7 58.7 59.3 58.0 88 55.2 0.0 4.0 ESE 0.00 29.893
10/10/2004 11:00 a 59.7 59.7 59.7 60.0 59.3 90 56.8 0.0 3.0 SE 0.00 29.889
10/10/2004 11:30 a 60.7 60.7 60.7 61.3 60.0 87 56.8 0.0 2.0 SE 0.00 29.885
10/10/2004 12:00 p 61.9 61.9 61.9 62.8 61.2 84 57.0 0.0 4.0 ESE 0.00 29.879
10/10/2004 12:30 p 63.6 63.6 63.6 64.0 62.8 83 58.3 0.0 3.0 SE 0.00 29.874
10/10/2004 1:00 p 66.8 66.8 66.8 70.8 63.7 76 59.0 0.0 3.0 SE 0.00 29.869
10/10/2004 1:30 p 65.0 65.0 65.0 66.3 64.1 75 56.9 0.0 3.0 SE 0.00 29.845
10/10/2004 2:00 p 65.5 65.5 65.5 66.0 64.6 69 55.1 0.0 4.0 SE 0.00 29.831
10/10/2004 2:30 p 65.5 65.5 65.5 66.2 64.7 62 52.2 0.0 5.0 SE 0.00 29.831
10/10/2004 3:00 p 64.5 64.5 64.5 65.1 64.2 56 48.5 0.0 4.0 SE 0.00 29.832
10/10/2004 3:30 p 63.2 63.2 63.2 64.2 62.8 56 47.3 1.0 5.0 SE 0.00 29.833
10/10/2004 4:00 p 62.5 62.5 62.5 62.9 61.9 57 47.1 1.0 3.0 SE 0.00 29.839
10/10/2004 4:30 p 60.9 60.9 60.9 61.9 59.8 59 46.5 0.0 3.0 SE 0.00 29.842
10/10/2004 5:00 p 59.6 59.6 59.6 59.8 59.5 60 45.7 0.0 3.0 SE 0.00 29.847
10/10/2004 5:30 p 59.0 59.0 59.0 59.5 58.5 59 44.7 1.0 4.0 SE 0.00 29.859
10/10/2004 6:00 p 57.6 57.6 57.6 58.4 56.9 61 44.3 1.0 4.0 SE 0.00 29.868
10/10/2004 6:30 p 56.4 56.4 56.4 57.0 55.6 63 44.0 1.0 4.0 SE 0.00 29.866
10/10/2004 7:00 p 55.1 55.1 55.1 55.6 54.6 64 43.2 1.0 4.0 SE 0.00 29.873
10/10/2004 7:30 p 55.0 55.0 55.0 55.2 54.6 64 43.1 1.0 5.0 SE 0.00 29.882
10/10/2004 8:00 p 54.1 54.1 54.1 54.6 53.8 64 42.2 1.0 4.0 SE 0.00 29.883
10/10/2004 8:30 p 53.0 53.0 53.0 53.8 52.7 66 42.0 0.0 3.0 SE 0.00 29.897
10/10/2004 9:00 p 52.8 52.8 52.8 52.9 52.8 65 41.4 1.0 3.0 SE 0.00 29.907
10/10/2004 9:30 p 52.7 52.7 52.7 52.9 52.4 66 41.7 1.0 5.0 SE 0.00 29.911
10/10/2004 10:00 p 52.6 52.6 52.6 52.7 52.5 66 41.6 0.0 4.0 ESE 0.00 29.910
10/10/2004 10:30 p 52.2 52.2 52.2 52.5 51.7 68 42.0 0.0 3.0 ESE 0.00 29.915
10/10/2004 11:00 p 51.2 51.2 51.2 51.8 50.6 70 41.8 0.0 6.0 ESE 0.00 29.911
10/10/2004 11:30 p 50.3 50.3 50.3 50.6 50.0 72 41.6 0.0 2.0 ESE 0.00 29.907
10/11/2004 12:00 a 50.0 50.0 50.0 50.1 49.9 71 41.0 0.0 3.0 ESE 0.00 29.899
10/11/2004 12:30 a 49.8 49.8 49.8 50.1 49.4 73 41.5 0.0 4.0 SE 0.00 29.899
10/11/2004 1:00 a 49.4 49.4 49.4 49.5 49.2 73 41.1 0.0 4.0 SE 0.00 29.898
10/11/2004 1:30 a 49.0 49.0 49.0 49.2 48.8 75 41.4 0.0 3.0 ESE 0.00 29.899
10/11/2004 2:00 a 48.6 48.6 48.6 48.8 48.4 76 41.4 0.0 1.0 ESE 0.00 29.899
10/11/2004 2:30 a 48.2 48.2 48.2 48.5 47.8 78 41.7 0.0 1.0 ESE 0.00 29.896
10/11/2004 3:00 a 47.6 47.6 47.6 47.8 47.4 79 41.4 0.0 1.0 ESE 0.00 29.888
10/11/2004 3:30 a 47.5 47.5 47.5 47.5 47.4 79 41.3 0.0 0.0 --- 0.00 29.897
10/11/2004 4:00 a 47.0 47.0 47.0 47.4 46.5 83 42.1 0.0 1.0 ESE 0.00 29.895
10/11/2004 4:30 a 46.4 46.4 46.4 46.6 46.0 87 42.7 0.0 0.0 --- 0.00 29.895
10/11/2004 5:00 a 45.5 45.5 45.5 46.0 44.9 90 42.7 0.0 0.0 --- 0.00 29.897
10/11/2004 5:30 a 44.6 44.6 44.6 44.9 43.9 93 42.7 0.0 0.0 --- 0.00 29.905
10/11/2004 6:00 a 44.2 44.2 44.2 45.0 43.7 91 41.7 0.0 0.0 --- 0.00 29.906
10/11/2004 6:30 a 46.2 46.2 46.2 46.7 45.0 85 41.9 0.0 1.0 --- 0.00 29.900
10/11/2004 7:00 a 46.4 46.4 46.4 46.4 46.3 85 42.1 0.0 0.0 --- 0.00 29.912
10/11/2004 7:30 a 46.1 46.1 46.1 46.3 46.0 86 42.2 0.0 0.0 --- 0.00 29.917
10/11/2004 8:00 a 47.4 47.4 47.4 48.3 46.1 86 43.4 0.0 0.0 --- 0.00 29.925
10/11/2004 8:30 a 48.4 48.4 48.4 49.9 47.5 79 42.2 0.0 0.0 --- 0.00 29.924
10/11/2004 9:00 a 50.9 50.9 50.9 52.0 49.8 73 42.6 0.0 3.0 ESE 0.00 29.921
10/11/2004 9:30 a 52.8 52.8 52.8 53.8 52.0 67 42.2 0.0 4.0 SE 0.00 29.917
10/11/2004 10:00 a 54.0 54.0 54.0 54.4 53.7 64 42.1 0.0 4.0 SE 0.00 29.915
10/11/2004 10:30 a 54.8 54.8 54.8 55.7 54.3 59 40.8 0.0 5.0 SE 0.00 29.908
10/11/2004 11:00 a 56.6 56.6 56.6 58.0 55.7 55 40.6 0.0 4.0 SE 0.00 29.912
10/11/2004 11:30 a 56.9 56.9 56.9 58.0 56.2 56 41.4 1.0 6.0 SE 0.00 29.906
10/11/2004 12:00 p 56.6 56.6 56.6 57.3 56.0 57 41.6 1.0 5.0 SE 0.00 29.895
10/11/2004 12:30 p 57.6 57.6 57.6 58.3 56.9 52 40.1 1.0 4.0 SE 0.00 29.891
10/11/2004 1:00 p 59.8 59.8 59.8 64.5 58.2 42 36.7 0.0 4.0 SE 0.00 29.882
10/11/2004 1:30 p 62.0 62.0 62.0 68.2 58.6 50 43.2 1.0 5.0 SE 0.00 29.879
10/11/2004 2:00 p 59.8 59.8 59.8 60.6 58.5 49 40.6 0.0 4.0 SE 0.00 29.867
10/11/2004 2:30 p 60.0 60.0 60.0 61.2 58.8 47 39.7 1.0 5.0 SE 0.00 29.869
10/11/2004 3:00 p 60.4 60.4 60.4 61.0 60.0 47 40.1 0.0 4.0 SE 0.00 29.868
10/11/2004 3:30 p 59.9 59.9 59.9 60.3 59.0 50 41.2 1.0 5.0 ESE 0.00 29.864
10/11/2004 4:00 p 59.2 59.2 59.2 60.1 58.1 49 40.1 1.0 5.0 SE 0.00 29.857
10/11/2004 4:30 p 57.5 57.5 57.5 58.1 57.0 51 39.5 1.0 5.0 SE 0.00 29.857
10/11/2004 5:00 p 56.6 56.6 56.6 57.0 56.2 53 39.7 0.0 4.0 SE 0.00 29.853
10/11/2004 5:30 p 55.7 55.7 55.7 56.1 55.3 54 39.3 0.0 3.0 ESE 0.00 29.853
10/11/2004 6:00 p 54.5 54.5 54.5 55.2 53.8 57 39.6 0.0 3.0 ESE 0.00 29.858
10/11/2004 6:30 p 53.1 53.1 53.1 53.8 52.4 59 39.2 0.0 4.0 SE 0.00 29.861
10/11/2004 7:00 p 51.9 51.9 51.9 52.4 51.7 60 38.5 0.0 2.0 SE 0.00 29.866
10/11/2004 7:30 p 51.2 51.2 51.2 51.7 50.9 61 38.2 0.0 4.0 ESE 0.00 29.871
10/11/2004 8:00 p 50.3 50.3 50.3 50.9 49.6 62 37.8 0.0 5.0 ESE 0.00 29.867
10/11/2004 8:30 p 48.7 48.7 48.7 49.6 47.8 67 38.2 0.0 3.0 SE 0.00 29.875
10/11/2004 9:00 p 47.1 47.1 47.1 47.8 46.7 70 37.8 0.0 1.0 --- 0.00 29.868
10/11/2004 9:30 p 46.1 46.1 46.1 46.7 45.7 72 37.6 0.0 0.0 --- 0.00 29.859
10/11/2004 10:00 p 45.3 45.3 45.3 45.8 44.5 76 38.2 0.0 0.0 --- 0.00 29.848
10/11/2004 10:30 p 43.3 43.3 43.3 44.5 42.4 81 37.9 0.0 0.0 --- 0.00 29.843
10/11/2004 11:00 p 42.0 42.0 42.0 42.4 41.6 85 37.8 0.0 0.0 --- 0.00 29.834
10/11/2004 11:30 p 41.1 41.1 41.1 41.6 40.7 88 37.8 0.0 0.0 --- 0.00 29.821
10/12/2004 12:00 a 40.4 40.4 40.4 40.7 40.0 90 37.7 0.0 0.0 --- 0.00 29.809
10/12/2004 12:30 a 39.8 39.8 39.8 40.1 39.6 92 37.7 0.0 0.0 --- 0.00 29.801
10/12/2004 1:00 a 39.4 39.4 39.4 39.7 39.2 93 37.5 0.0 0.0 --- 0.00 29.788
10/12/2004 1:30 a 39.2 39.2 39.2 39.3 39.2 94 37.6 0.0 0.0 --- 0.00 29.792
10/12/2004 2:00 a 39.2 39.2 39.2 39.5 39.1 94 37.6 0.0 0.0 --- 0.00 29.789
10/12/2004 2:30 a 40.6 40.6 40.6 42.4 39.5 90 37.9 0.0 1.0 ESE 0.00 29.778
10/12/2004 3:00 a 43.4 43.4 43.4 43.7 42.4 86 39.5 0.0 0.0 --- 0.00 29.758
10/12/2004 3:30 a 43.0 43.0 43.0 43.7 42.3 87 39.4 0.0 0.0 --- 0.00 29.752
10/12/2004 4:00 a 41.8 41.8 41.8 42.4 41.2 91 39.4 0.0 0.0 --- 0.00 29.742
10/12/2004 4:30 a 40.8 40.8 40.8 41.2 40.4 93 38.9 0.0 0.0 --- 0.00 29.731
10/12/2004 5:00 a 40.5 40.5 40.5 40.9 40.4 91 38.1 0.0 0.0 --- 0.00 29.723
10/12/2004 5:30 a 41.1 41.1 41.1 41.3 40.8 91 38.7 0.0 0.0 --- 0.00 29.721
10/12/2004 6:00 a 40.7 40.7 40.7 41.4 40.4 92 38.6 0.0 1.0 ESE 0.00 29.720
10/12/2004 6:30 a 42.1 42.1 42.1 42.9 41.4 88 38.8 0.0 2.0 NE 0.00 29.713
10/12/2004 7:00 a 42.1 42.1 42.1 42.9 41.4 87 38.5 0.0 1.0 E 0.00 29.715
10/12/2004 7:30 a 43.8 43.8 43.8 44.1 42.9 83 39.0 0.0 1.0 ESE 0.00 29.704
10/12/2004 8:00 a 45.1 45.1 45.1 45.5 44.1 79 39.0 0.0 2.0 ENE 0.00 29.694
10/12/2004 8:30 a 46.3 46.3 46.3 47.6 45.4 74 38.5 0.0 2.0 ENE 0.00 29.691
10/12/2004 9:00 a 48.5 48.5 48.5 49.5 47.6 71 39.5 0.0 2.0 ESE 0.00 29.687
10/12/2004 9:30 a 50.3 50.3 50.3 51.9 49.5 64 38.6 0.0 3.0 SE 0.00 29.684
10/12/2004 10:00 a 51.4 51.4 51.4 52.0 51.0 65 40.0 0.0 4.0 SE 0.00 29.677
10/12/2004 10:30 a 52.7 52.7 52.7 53.2 52.0 62 40.1 1.0 4.0 SE 0.00 29.675
10/12/2004 11:00 a 53.9 53.9 53.9 54.7 53.2 61 40.8 1.0 5.0 ESE 0.00 29.662
10/12/2004 11:30 a 55.5 55.5 55.5 56.3 54.7 58 41.0 1.0 5.0 ESE 0.00 29.653
10/12/2004 12:00 p 56.9 56.9 56.9 57.5 56.3 55 40.9 0.0 4.0 SE 0.00 29.636
10/12/2004 12:30 p 58.3 58.3 58.3 59.7 57.4 53 41.3 1.0 4.0 SE 0.00 29.622
10/12/2004 1:00 p 65.2 69.0 69.0 73.5 59.6 31 37.1 1.0 4.0 SE 0.00 29.606
10/12/2004 1:30 p 66.0 66.0 66.0 74.1 62.5 47 45.2 1.0 5.0 SE 0.00 29.594
10/12/2004 2:00 p 63.1 63.1 63.1 63.5 62.7 46 42.0 1.0 3.0 SE 0.00 29.585
10/12/2004 2:30 p 63.8 63.8 63.8 64.1 63.5 46 42.6 1.0 5.0 ESE 0.00 29.576
10/12/2004 3:00 p 63.9 63.9 63.9 64.3 63.5 47 43.3 1.0 4.0 ESE 0.00 29.569
10/12/2004 3:30 p 63.5 63.5 63.5 63.7 63.3 46 42.4 1.0 4.0 ESE 0.00 29.565
10/12/2004 4:00 p 63.3 63.3 63.3 63.6 63.1 45 41.6 1.0 5.0 SE 0.00 29.560
10/12/2004 4:30 p 62.8 62.8 62.8 63.1 62.3 48 42.8 1.0 4.0 SE 0.00 29.554
10/12/2004 5:00 p 62.1 62.1 62.1 62.3 61.8 48 42.2 1.0 4.0 SE 0.00 29.556
10/12/2004 5:30 p 61.2 61.2 61.2 61.8 60.6 51 42.9 0.0 3.0 SE 0.00 29.560
10/12/2004 6:00 p 59.8 59.8 59.8 60.6 58.4 56 44.1 0.0 3.0 ESE 0.00 29.564
10/12/2004 6:30 p 56.2 56.2 56.2 58.4 54.6 67 45.4 0.0 1.0 --- 0.00 29.565
10/12/2004 7:00 p 54.6 54.6 54.6 55.1 54.0 65 43.1 0.0 3.0 N 0.00 29.567
10/12/2004 7:30 p 53.2 53.2 53.2 54.7 52.0 73 44.8 0.0 0.0 --- 0.00 29.565
10/12/2004 8:00 p 51.6 51.6 51.6 52.0 50.7 76 44.3 0.0 0.0 --- 0.00 29.572
10/12/2004 8:30 p 51.4 51.4 51.4 52.4 50.4 66 40.4 0.0 2.0 SE 0.00 29.576
10/12/2004 9:00 p 51.7 51.7 51.7 52.3 50.9 73 43.3 0.0 0.0 --- 0.00 29.587
10/12/2004 9:30 p 49.5 49.5 49.5 50.8 48.7 79 43.3 0.0 1.0 --- 0.00 29.583
10/12/2004 10:00 p 48.3 48.3 48.3 48.7 48.1 79 42.1 0.0 0.0 --- 0.00 29.589
10/12/2004 10:30 p 47.7 47.7 47.7 48.3 46.7 83 42.8 0.0 0.0 --- 0.00 29.593
10/12/2004 11:00 p 46.2 46.2 46.2 46.9 45.8 83 41.3 0.0 1.0 ESE 0.00 29.586
10/12/2004 11:30 p 46.6 46.6 46.6 47.2 46.0 84 42.0 0.0 0.0 --- 0.00 29.591
10/13/2004 12:00 a 46.8 46.8 46.8 48.5 45.8 79 40.6 0.0 1.0 E 0.00 29.587
10/13/2004 12:30 a 45.8 45.8 45.8 47.8 44.4 86 41.9 0.0 0.0 --- 0.00 29.596
10/13/2004 1:00 a 44.1 44.1 44.1 44.4 43.7 89 41.1 0.0 0.0 --- 0.00 29.603
10/13/2004 1:30 a 43.7 43.7 43.7 43.9 43.4 91 41.3 0.0 0.0 --- 0.00 29.608
10/13/2004 2:00 a 42.9 42.9 42.9 43.4 42.5 92 40.7 0.0 0.0 --- 0.00 29.609
10/13/2004 2:30 a 42.0 42.0 42.0 42.5 41.6 94 40.4 0.0 0.0 --- 0.00 29.604
10/13/2004 3:00 a 41.3 41.3 41.3 41.7 40.9 96 40.2 0.0 0.0 --- 0.00 29.590
10/13/2004 3:30 a 41.2 41.2 41.2 41.6 40.8 96 40.1 0.0 0.0 --- 0.00 29.589
10/13/2004 4:00 a 40.3 40.3 40.3 40.8 40.0 97 39.5 0.0 0.0 --- 0.00 29.600
10/13/2004 4:30 a 39.8 39.8 39.8 40.1 39.4 98 39.3 0.0 0.0 --- 0.00 29.598
10/13/2004 5:00 a 39.2 39.2 39.2 39.4 39.1 99 38.9 0.0 0.0 --- 0.00 29.593
10/13/2004 5:30 a 38.8 38.8 38.8 39.1 38.6 100 38.8 0.0 0.0 --- 0.00 29.598
10/13/2004 6:00 a 38.3 38.3 38.3 38.6 38.1 100 38.3 0.0 0.0 --- 0.00 29.598
10/13/2004 6:30 a 37.8 37.8 37.8 38.1 37.6 100 37.8 0.0 0.0 --- 0.00 29.598
10/13/2004 7:00 a 37.3 37.3 37.3 37.7 37.0 100 37.3 0.0 0.0 --- 0.00 29.604
10/13/2004 7:30 a 37.3 37.3 37.3 37.5 37.0 100 37.3 0.0 0.0 --- 0.00 29.608
10/13/2004 8:00 a 38.4 38.4 38.4 39.3 37.5 100 38.4 0.0 0.0 --- 0.00 29.608
10/13/2004 8:30 a 40.7 40.7 40.7 42.8 39.4 100 40.7 0.0 0.0 --- 0.00 29.608
10/13/2004 9:00 a 44.7 44.7 44.7 46.9 42.8 93 42.8 0.0 0.0 --- 0.00 29.612
10/13/2004 9:30 a 48.6 48.6 48.6 50.0 47.0 80 42.7 0.0 0.0 --- 0.00 29.611
10/13/2004 10:00 a 51.0 51.0 51.0 52.1 50.0 73 42.7 0.0 1.0 --- 0.00 29.603
10/13/2004 10:30 a 53.8 53.8 53.8 55.0 52.1 64 41.9 0.0 3.0 SE 0.00 29.597
10/13/2004 11:00 a 56.0 56.0 56.0 56.9 55.0 59 41.9 0.0 1.0 SE 0.00 29.595
10/13/2004 11:30 a 58.1 58.1 58.1 59.3 56.9 53 41.1 0.0 2.0 SE 0.00 29.594
10/13/2004 12:00 p 60.6 60.6 60.6 61.8 59.3 48 40.8 0.0 3.0 SSE 0.00 29.582
10/13/2004 12:30 p 62.3 62.3 62.3 63.3 61.8 47 41.8 0.0 2.0 SSE 0.00 29.570
10/13/2004 1:00 p 70.4 72.6 72.6 79.6 63.3 27 36.7 0.0 1.0 SSE 0.00 29.557
10/13/2004 1:30 p 69.0 71.2 71.2 79.1 67.0 40 45.7 0.0 1.0 SSE 0.00 29.544
10/13/2004 2:00 p 67.7 67.7 67.7 68.0 67.1 42 43.8 0.0 1.0 SSE 0.00 29.532
10/13/2004 2:30 p 67.7 67.7 67.7 67.9 67.5 41 43.2 0.0 0.0 --- 0.00 29.521
10/13/2004 3:00 p 67.0 67.0 67.0 67.5 66.2 45 45.0 0.0 2.0 SW 0.00 29.523
10/13/2004 3:30 p 65.9 65.9 65.9 66.2 65.5 49 46.2 0.0 0.0 --- 0.00 29.520
10/13/2004 4:00 p 65.1 65.1 65.1 65.5 64.6 51 46.5 0.0 0.0 --- 0.00 29.525
10/13/2004 4:30 p 63.7 63.7 63.7 64.6 62.8 55 47.2 0.0 0.0 --- 0.00 29.514
10/13/2004 5:00 p 62.2 62.2 62.2 62.8 61.5 59 47.7 0.0 0.0 --- 0.00 29.510
10/13/2004 5:30 p 60.6 60.6 60.6 61.5 59.7 67 49.6 0.0 0.0 --- 0.00 29.526
10/13/2004 6:00 p 58.9 58.9 58.9 59.7 58.1 62 45.9 0.0 0.0 --- 0.00 29.522
10/13/2004 6:30 p 57.2 57.2 57.2 58.1 55.9 71 47.9 0.0 0.0 --- 0.00 29.531
10/13/2004 7:00 p 55.1 55.1 55.1 55.9 54.8 75 47.3 0.0 0.0 --- 0.00 29.520
10/13/2004 7:30 p 54.8 54.8 54.8 55.0 54.7 79 48.4 0.0 0.0 --- 0.00 29.517
10/13/2004 8:00 p 54.3 54.3 54.3 54.9 53.7 82 48.9 0.0 0.0 --- 0.00 29.530
10/13/2004 8:30 p 53.7 53.7 53.7 54.1 53.5 83 48.7 0.0 0.0 --- 0.00 29.529
10/13/2004 9:00 p 54.0 54.0 54.0 54.2 54.0 85 49.6 0.0 0.0 --- 0.00 29.523
10/13/2004 9:30 p 54.0 54.0 54.0 54.0 53.7 86 49.9 0.0 0.0 --- 0.00 29.527
10/13/2004 10:00 p 53.1 53.1 53.1 53.7 52.6 89 49.9 0.0 0.0 --- 0.00 29.533
10/13/2004 10:30 p 52.5 52.5 52.5 52.6 52.4 91 50.0 0.0 0.0 --- 0.00 29.531
10/13/2004 11:00 p 52.7 52.7 52.7 52.9 52.5 91 50.2 0.0 0.0 --- 0.00 29.525
10/13/2004 11:30 p 52.0 52.0 52.0 53.0 50.8 95 50.6 0.0 0.0 --- 0.00 29.516
10/14/2004 12:00 a 50.0 50.0 50.0 50.8 49.3 99 49.7 0.0 0.0 --- 0.00 29.511
10/14/2004 12:30 a 48.8 48.8 48.8 49.3 48.2 100 48.8 0.0 0.0 --- 0.00 29.501
10/14/2004 1:00 a 47.9 47.9 47.9 48.2 47.7 100 47.9 0.0 0.0 --- 0.00 29.492
10/14/2004 1:30 a 47.3 47.3 47.3 47.7 46.9 100 47.3 0.0 0.0 --- 0.00 29.477
10/14/2004 2:00 a 46.7 46.7 46.7 46.9 46.5 100 46.7 0.0 0.0 --- 0.00 29.468
10/14/2004 2:30 a 46.6 46.6 46.6 46.7 46.5 100 46.6 0.0 0.0 --- 0.00 29.462
10/14/2004 3:00 a 46.6 46.6 46.6 46.9 46.4 100 46.6 0.0 0.0 --- 0.00 29.464
10/14/2004 3:30 a 47.5 47.5 47.5 48.2 46.8 100 47.5 0.0 0.0 --- 0.00 29.445
10/14/2004 4:00 a 48.6 48.6 48.6 48.8 48.2 100 48.6 0.0 0.0 --- 0.00 29.448
10/14/2004 4:30 a 48.5 48.5 48.5 48.6 48.3 100 48.5 0.0 0.0 --- 0.00 29.459
10/14/2004 5:00 a 48.3 48.3 48.3 48.5 48.2 100 48.3 0.0 0.0 --- 0.00 29.451
10/14/2004 5:30 a 49.2 49.2 49.2 50.0 48.5 100 49.2 0.0 0.0 --- 0.00 29.445
10/14/2004 6:00 a 50.6 50.6 50.6 51.2 49.9 100 50.6 0.0 0.0 --- 0.00 29.440
10/14/2004 6:30 a 51.7 51.7 51.7 52.0 51.1 100 51.7 0.0 0.0 --- 0.00 29.441
10/14/2004 7:00 a 52.1 52.1 52.1 52.3 52.0 100 52.1 0.0 0.0 --- 0.00 29.435
10/14/2004 7:30 a 52.4 52.4 52.4 52.5 52.3 100 52.4 0.0 0.0 --- 0.00 29.440
10/14/2004 8:00 a 52.6 52.6 52.6 52.7 52.5 100 52.6 0.0 0.0 --- 0.01 29.448
10/14/2004 8:30 a 52.8 52.8 52.8 53.0 52.7 100 52.8 0.0 0.0 --- 0.02 29.456
10/14/2004 9:00 a 53.6 53.6 53.6 54.2 53.0 100 53.6 0.0 0.0 --- 0.00 29.461
10/14/2004 9:30 a 55.1 55.1 55.1 55.8 54.2 100 55.1 0.0 0.0 --- 0.01 29.463
10/14/2004 10:00 a 55.7 55.7 55.7 56.0 55.5 100 55.7 0.0 0.0 --- 0.00 29.460
10/14/2004 10:30 a 55.7 55.7 55.7 55.8 55.6 100 55.7 0.0 0.0 --- 0.00 29.458
10/14/2004 11:00 a 56.4 56.4 56.4 57.5 55.8 100 56.4 0.0 1.0 --- 0.00 29.445
10/14/2004 11:30 a 57.7 57.7 57.7 58.0 57.4 100 57.7 0.0 1.0 SW 0.00 29.438
10/14/2004 12:00 p 57.4 57.4 57.4 58.2 57.0 100 57.4 0.0 2.0 SW 0.00 29.436
10/14/2004 12:30 p 58.8 58.8 58.8 59.2 58.2 100 58.8 0.0 2.0 SSE 0.00 29.424
10/14/2004 1:00 p 60.2 60.2 60.2 60.7 59.2 100 60.2 0.0 2.0 SSE 0.00 29.420
10/14/2004 1:30 p 60.6 60.6 60.6 61.0 60.2 100 60.6 0.0 0.0 --- 0.00 29.412
10/14/2004 2:00 p 61.1 61.1 61.1 61.2 61.0 100 61.1 0.0 1.0 --- 0.00 29.407
10/14/2004 2:30 p 61.0 61.0 61.0 61.2 60.7 100 61.0 0.0 0.0 --- 0.00 29.409
10/14/2004 3:00 p 60.4 60.4 60.4 60.7 59.8 100 60.4 0.0 1.0 SSE 0.00 29.414
10/14/2004 3:30 p 59.4 59.4 59.4 59.8 59.3 100 59.4 0.0 2.0 SSE 0.00 29.413
10/14/2004 4:00 p 59.3 59.3 59.3 59.4 59.0 100 59.3 0.0 0.0 --- 0.00 29.415
10/14/2004 4:30 p 58.6 58.6 58.6 59.0 58.4 100 58.6 0.0 0.0 --- 0.00 29.419
10/14/2004 5:00 p 58.3 58.3 58.3 58.5 58.2 100 58.3 0.0 3.0 ESE 0.00 29.428
10/14/2004 5:30 p 57.7 57.7 57.7 58.2 57.4 100 57.7 0.0 0.0 --- 0.00 29.425
10/14/2004 6:00 p 57.4 57.4 57.4 57.5 57.3 100 57.4 0.0 2.0 ESE 0.00 29.431
10/14/2004 6:30 p 57.1 57.1 57.1 57.3 56.7 100 57.1 0.0 1.0 ESE 0.00 29.437
10/14/2004 7:00 p 56.5 56.5 56.5 56.7 56.4 100 56.5 0.0 1.0 ESE 0.00 29.448
10/14/2004 7:30 p 56.3 56.3 56.3 56.4 56.1 100 56.3 0.0 0.0 --- 0.00 29.454
10/14/2004 8:00 p 55.9 55.9 55.9 56.1 55.7 97 55.1 0.0 0.0 --- 0.00 29.461
10/14/2004 8:30 p 55.8 55.8 55.8 56.1 55.6 94 54.1 0.0 0.0 --- 0.00 29.474
10/14/2004 9:00 p 55.8 55.8 55.8 56.1 55.3 96 54.7 0.0 0.0 --- 0.00 29.474
10/14/2004 9:30 p 55.1 55.1 55.1 55.3 54.9 97 54.3 0.0 0.0 --- 0.00 29.474
10/14/2004 10:00 p 54.8 54.8 54.8 54.9 54.7 97 54.0 0.0 0.0 --- 0.00 29.470
10/14/2004 10:30 p 54.7 54.7 54.7 54.8 54.7 98 54.1 0.0 0.0 --- 0.00 29.485
10/14/2004 11:00 p 54.7 54.7 54.7 54.8 54.7 98 54.1 0.0 0.0 --- 0.00 29.480
10/14/2004 11:30 p 54.6 54.6 54.6 54.7 54.6 99 54.3 0.0 0.0 --- 0.00 29.488
10/15/2004 12:00 a 54.5 54.5 54.5 54.7 54.2 99 54.2 0.0 0.0 --- 0.00 29.467
10/15/2004 12:30 a 53.6 53.6 53.6 54.2 53.1 100 53.6 0.0 0.0 --- 0.00 29.473
10/15/2004 1:00 a 52.8 52.8 52.8 53.1 52.5 100 52.8 0.0 0.0 --- 0.00 29.462
10/15/2004 1:30 a 52.4 52.4 52.4 52.6 52.0 100 52.4 0.0 0.0 --- 0.00 29.459
10/15/2004 2:00 a 51.8 51.8 51.8 52.1 51.5 100 51.8 0.0 0.0 --- 0.00 29.472
10/15/2004 2:30 a 51.4 51.4 51.4 51.5 51.3 100 51.4 0.0 0.0 --- 0.00 29.470
10/15/2004 3:00 a 51.5 51.5 51.5 51.8 51.3 100 51.5 0.0 0.0 --- 0.00 29.475
10/15/2004 3:30 a 52.3 52.3 52.3 52.6 51.8 100 52.3 0.0 0.0 --- 0.00 29.468
10/15/2004 4:00 a 52.8 52.8 52.8 53.0 52.6 100 52.8 0.0 0.0 --- 0.00 29.472
10/15/2004 4:30 a 53.2 53.2 53.2 53.3 53.0 100 53.2 0.0 0.0 --- 0.00 29.481
10/15/2004 5:00 a 53.3 53.3 53.3 53.4 53.1 100 53.3 0.0 0.0 --- 0.00 29.476
10/15/2004 5:30 a 53.2 53.2 53.2 53.3 53.0 100 53.2 0.0 0.0 --- 0.00 29.472
10/15/2004 6:00 a 53.2 53.2 53.2 53.3 53.1 100 53.2 0.0 0.0 --- 0.00 29.467
10/15/2004 6:30 a 53.3 53.3 53.3 53.6 53.1 100 53.3 0.0 0.0 --- 0.00 29.467
10/15/2004 7:00 a 53.3 53.3 53.3 53.6 53.0 100 53.3 0.0 0.0 --- 0.00 29.460
10/15/2004 7:30 a 53.1 53.1 53.1 53.1 53.0 100 53.1 0.0 0.0 --- 0.00 29.462
10/15/2004 8:00 a 53.4 53.4 53.4 53.9 53.0 100 53.4 0.0 0.0 --- 0.00 29.470
10/15/2004 8:30 a 54.4 54.4 54.4 54.9 53.9 95 53.0 0.0 0.0 --- 0.00 29.473
10/15/2004 9:00 a 55.2 55.2 55.2 55.5 54.9 92 52.9 0.0 0.0 --- 0.00 29.466
10/15/2004 9:30 a 56.0 56.0 56.0 56.6 55.5 90 53.1 0.0 0.0 --- 0.00 29.455
10/15/2004 10:00 a 57.2 57.2 57.2 57.7 56.5 89 54.0 0.0 0.0 --- 0.00 29.457
10/15/2004 10:30 a 58.6 58.6 58.6 59.7 57.7 85 54.1 0.0 0.0 --- 0.00 29.455
10/15/2004 11:00 a 61.0 61.0 61.0 61.7 59.7 83 55.8 0.0 1.0 --- 0.00 29.445
10/15/2004 11:30 a 62.1 62.1 62.1 62.4 61.7 84 57.2 0.0 1.0 ESE 0.00 29.428
10/15/2004 12:00 p 64.2 64.2 64.2 66.2 62.4 78 57.2 0.0 1.0 ESE 0.00 29.411
10/15/2004 12:30 p 65.8 65.8 65.8 66.9 64.8 81 59.8 0.0 2.0 N 0.00 29.399
10/15/2004 1:00 p 65.1 65.1 65.1 65.3 64.8 82 59.5 0.0 3.0 NNW 0.00 29.376
10/15/2004 1:30 p 65.6 65.6 65.6 66.0 65.1 82 60.0 0.0 3.0 NNW 0.00 29.362
10/15/2004 2:00 p 66.0 66.0 66.0 66.6 65.3 81 60.0 1.0 3.0 NNW 0.00 29.343
10/15/2004 2:30 p 65.3 65.3 65.3 65.7 65.0 84 60.3 0.0 2.0 NNW 0.00 29.338
10/15/2004 3:00 p 64.9 64.9 64.9 65.1 64.5 85 60.3 0.0 4.0 NNW 0.00 29.315
10/15/2004 3:30 p 63.8 63.8 63.8 64.5 62.1 100 63.8 0.0 2.0 NNW 0.00 29.306
10/15/2004 4:00 p 61.8 61.8 61.8 62.1 61.7 100 61.8 1.0 5.0 N 0.03 29.317
10/15/2004 4:30 p 61.7 61.7 61.7 61.8 61.5 100 61.7 0.0 3.0 WNW 0.01 29.299
10/15/2004 5:00 p 60.8 60.8 60.8 61.5 59.8 100 60.8 0.0 3.0 NW 0.01 29.288
10/15/2004 5:30 p 57.9 57.9 57.9 59.8 56.4 100 57.9 1.0 4.0 NNW 0.01 29.313
10/15/2004 6:00 p 56.1 56.1 56.1 56.4 55.9 100 56.1 1.0 4.0 NNW 0.04 29.283
10/15/2004 6:30 p 56.1 56.1 56.1 56.3 56.0 100 56.1 0.0 1.0 NNW 0.00 29.271
10/15/2004 7:00 p 56.7 56.7 56.7 57.0 56.3 100 56.7 0.0 2.0 NNW 0.00 29.277
10/15/2004 7:30 p 57.3 57.3 57.3 57.5 57.0 100 57.3 0.0 3.0 NW 0.00 29.268
10/15/2004 8:00 p 57.9 57.9 57.9 58.2 57.5 100 57.9 0.0 0.0 --- 0.02 29.250
10/15/2004 8:30 p 57.9 57.9 57.9 58.0 57.8 100 57.9 0.0 0.0 --- 0.00 29.223
10/15/2004 9:00 p 57.8 57.8 57.8 57.8 57.7 100 57.8 0.0 0.0 --- 0.00 29.239
10/15/2004 9:30 p 57.9 57.9 57.9 58.2 57.7 100 57.9 0.0 0.0 --- 0.05 29.237
10/15/2004 10:00 p 58.5 58.5 58.5 58.7 58.2 100 58.5 0.0 4.0 NW 0.18 29.250
10/15/2004 10:30 p 56.9 56.9 56.9 58.2 54.9 100 56.9 0.0 6.0 NNW 0.01 29.240
10/15/2004 11:00 p 53.6 53.6 53.6 54.8 52.9 100 53.6 0.0 3.0 NW 0.00 29.246
10/15/2004 11:30 p 52.3 52.3 52.3 53.0 51.7 100 52.3 0.0 2.0 NW 0.00 29.251
10/16/2004 12:00 a 51.1 51.1 51.1 51.8 50.5 100 51.1 0.0 1.0 --- 0.00 29.251
10/16/2004 12:30 a 49.8 49.8 49.8 50.5 49.4 100 49.8 0.0 2.0 NW 0.00 29.263
10/16/2004 1:00 a 49.0 49.0 49.0 49.4 48.6 100 49.0 0.0 1.0 --- 0.00 29.291
10/16/2004 1:30 a 48.1 48.1 48.1 48.6 47.9 100 48.1 0.0 0.0 --- 0.00 29.298
10/16/2004 2:00 a 47.5 47.5 47.5 47.9 47.1 100 47.5 0.0 0.0 --- 0.00 29.301
10/16/2004 2:30 a 46.6 46.6 46.6 47.1 46.1 100 46.6 0.0 0.0 --- 0.00 29.304
10/16/2004 3:00 a 45.8 45.8 45.8 46.1 45.5 100 45.8 0.0 0.0 --- 0.00 29.318
10/16/2004 3:30 a 45.8 45.8 45.8 46.1 45.6 100 45.8 0.0 0.0 --- 0.00 29.330
10/16/2004 4:00 a 46.0 46.0 46.0 46.1 45.8 100 46.0 0.0 0.0 --- 0.01 29.335
10/16/2004 4:30 a 45.7 45.7 45.7 45.8 45.6 100 45.7 0.0 0.0 --- 0.00 29.333
10/16/2004 5:00 a 45.5 45.5 45.5 45.7 45.2 100 45.5 0.0 1.0 --- 0.00 29.350
10/16/2004 5:30 a 44.8 44.8 44.8 45.2 44.6 100 44.8 0.0 0.0 --- 0.00 29.371
10/16/2004 6:00 a 44.8 44.8 44.8 45.0 44.7 100 44.8 0.0 0.0 --- 0.00 29.387
10/16/2004 6:30 a 45.0 45.0 45.0 45.7 44.5 100 45.0 0.0 0.0 --- 0.00 29.409
10/16/2004 7:00 a 45.6 45.6 45.6 45.9 45.3 100 45.6 0.0 0.0 --- 0.00 29.416
10/16/2004 7:30 a 45.4 45.4 45.4 45.5 45.2 100 45.4 0.0 0.0 --- 0.00 29.429
10/16/2004 8:00 a 45.8 45.8 45.8 46.2 45.2 100 45.8 0.0 0.0 --- 0.00 29.430
10/16/2004 8:30 a 47.2 47.2 47.2 48.2 46.2 100 47.2 0.0 1.0 --- 0.00 29.439
10/16/2004 9:00 a 49.5 49.5 49.5 50.5 48.2 100 49.5 0.0 1.0 --- 0.00 29.433
10/16/2004 9:30 a 51.1 51.1 51.1 51.8 50.5 100 51.1 0.0 2.0 N 0.00 29.433
10/16/2004 10:00 a 53.0 53.0 53.0 53.6 51.8 100 53.0 0.0 1.0 SSE 0.00 29.431
10/16/2004 10:30 a 53.8 53.8 53.8 54.5 53.4 100 53.8 0.0 3.0 NNW 0.00 29.423
10/16/2004 11:00 a 55.3 55.3 55.3 56.3 54.5 100 55.3 0.0 3.0 N 0.00 29.416
10/16/2004 11:30 a 56.2 56.2 56.2 56.8 55.3 100 56.2 0.0 4.0 SSE 0.00 29.416
10/16/2004 12:00 p 56.8 56.8 56.8 58.7 56.1 100 56.8 0.0 3.0 S 0.00 29.418
10/16/2004 12:30 p 59.4 59.4 59.4 60.6 58.7 95 58.0 0.0 3.0 N 0.00 29.420
10/16/2004 1:00 p 64.1 64.1 64.1 69.4 60.3 63 51.3 0.0 5.0 SSW 0.00 29.407
10/16/2004 1:30 p 63.4 63.4 63.4 69.1 60.7 63 50.6 0.0 3.0 NNW 0.00 29.402
10/16/2004 2:00 p 60.6 60.6 60.6 61.5 59.7 60 46.7 0.0 2.0 N 0.00 29.396
10/16/2004 2:30 p 60.4 60.4 60.4 61.5 59.1 63 47.8 0.0 2.0 SSW 0.00 29.403
10/16/2004 3:00 p 59.5 59.5 59.5 60.3 58.9 64 47.3 0.0 1.0 SSE 0.00 29.396
10/16/2004 3:30 p 57.7 57.7 57.7 59.7 56.4 75 49.8 0.0 4.0 S 0.00 29.411
10/16/2004 4:00 p 55.9 55.9 55.9 56.4 55.4 74 47.7 0.0 1.0 --- 0.00 29.411
10/16/2004 4:30 p 56.4 56.4 56.4 56.6 56.0 74 48.2 0.0 2.0 N 0.00 29.412
10/16/2004 5:00 p 54.9 54.9 54.9 56.0 53.6 85 50.5 0.0 2.0 N 0.00 29.417
10/16/2004 5:30 p 52.8 52.8 52.8 53.6 51.5 100 52.8 0.0 2.0 NNE 0.00 29.426
10/16/2004 6:00 p 51.3 51.3 51.3 51.5 51.1 100 51.3 0.0 1.0 NW 0.00 29.434
10/16/2004 6:30 p 49.8 49.8 49.8 51.1 48.9 100 49.8 0.0 0.0 --- 0.00 29.438
10/16/2004 7:00 p 48.9 48.9 48.9 49.0 48.8 100 48.9 0.0 0.0 --- 0.00 29.442
10/16/2004 7:30 p 49.3 49.3 49.3 49.7 48.8 100 49.3 0.0 2.0 SSE 0.02 29.449
10/16/2004 8:00 p 47.9 47.9 47.9 48.9 47.0 100 47.9 0.0 1.0 ESE 0.00 29.476
10/16/2004 8:30 p 46.8 46.8 46.8 47.0 46.6 100 46.8 0.0 2.0 E 0.00 29.485
10/16/2004 9:00 p 46.6 46.6 46.6 46.9 46.3 100 46.6 0.0 4.0 E 0.00 29.511
10/16/2004 9:30 p 46.2 46.2 46.2 46.7 45.6 100 46.2 0.0 3.0 NE 0.00 29.520
10/16/2004 10:00 p 45.4 45.4 45.4 45.7 45.0 100 45.4 0.0 0.0 --- 0.00 29.526
10/16/2004 10:30 p 44.8 44.8 44.8 45.1 44.3 100 44.8 0.0 1.0 NE 0.00 29.529
10/16/2004 11:00 p 43.9 43.9 43.9 44.3 43.5 100 43.9 0.0 0.0 --- 0.00 29.538
10/16/2004 11:30 p 43.1 43.1 43.1 43.5 42.9 100 43.1 0.0 0.0 --- 0.00 29.553
10/17/2004 12:00 a 42.2 42.2 42.2 42.9 41.6 100 42.2 0.0 0.0 --- 0.00 29.562
10/17/2004 12:30 a 41.2 41.2 41.2 41.6 40.9 100 41.2 0.0 0.0 --- 0.00 29.565
10/17/2004 1:00 a 40.6 40.6 40.6 40.9 40.3 100 40.6 0.0 0.0 --- 0.00 29.575
10/17/2004 1:30 a 40.0 40.0 40.0 40.3 39.6 100 40.0 0.0 0.0 --- 0.00 29.588
10/17/2004 2:00 a 39.3 39.3 39.3 39.6 39.1 100 39.3 0.0 0.0 --- 0.00 29.599
10/17/2004 2:30 a 39.2 39.2 39.2 39.3 39.2 100 39.2 0.0 0.0 --- 0.00 29.602
10/17/2004 3:00 a 39.3 39.3 39.3 39.5 39.2 100 39.3 0.0 0.0 --- 0.00 29.602
10/17/2004 3:30 a 39.5 39.5 39.5 39.6 39.4 100 39.5 0.0 0.0 --- 0.00 29.599
10/17/2004 4:00 a 39.7 39.7 39.7 39.7 39.5 100 39.7 0.0 0.0 --- 0.00 29.604
10/17/2004 4:30 a 39.3 39.3 39.3 39.5 39.0 100 39.3 0.0 0.0 --- 0.00 29.616
10/17/2004 5:00 a 39.2 39.2 39.2 39.3 39.1 100 39.2 0.0 0.0 --- 0.00 29.627
10/17/2004 5:30 a 39.0 39.0 39.0 39.2 38.7 100 39.0 0.0 0.0 --- 0.00 29.637
10/17/2004 6:00 a 38.5 38.5 38.5 38.7 38.1 100 38.5 0.0 0.0 --- 0.00 29.647
10/17/2004 6:30 a 37.6 37.6 37.6 38.1 37.3 100 37.6 0.0 0.0 --- 0.00 29.651
10/17/2004 7:00 a 37.1 37.1 37.1 37.4 36.9 100 37.1 0.0 0.0 --- 0.00 29.656
10/17/2004 7:30 a 36.9 36.9 36.9 37.2 36.8 100 36.9 0.0 0.0 --- 0.00 29.662
10/17/2004 8:00 a 39.2 39.2 39.2 40.6 37.2 100 39.2 0.0 0.0 --- 0.00 29.665
10/17/2004 8:30 a 41.5 41.5 41.5 42.2 40.5 100 41.5 0.0 0.0 --- 0.00 29.668
10/17/2004 9:00 a 42.9 42.9 42.9 43.4 42.2 100 42.9 0.0 0.0 --- 0.00 29.673
10/17/2004 9:30 a 44.2 44.2 44.2 44.5 43.4 100 44.2 0.0 0.0 --- 0.00 29.675
10/17/2004 10:00 a 45.1 45.1 45.1 45.5 44.5 100 45.1 0.0 0.0 --- 0.00 29.674
10/17/2004 10:30 a 46.6 46.6 46.6 47.9 45.4 100 46.6 0.0 0.0 --- 0.00 29.672
10/17/2004 11:00 a 48.5 48.5 48.5 48.7 48.0 100 48.5 0.0 0.0 --- 0.00 29.672
10/17/2004 11:30 a 49.1 49.1 49.1 49.8 48.6 100 49.1 0.0 0.0 --- 0.00 29.675
10/17/2004 12:00 p 50.6 50.6 50.6 51.5 49.7 99 50.3 0.0 2.0 WSW 0.00 29.672
10/17/2004 12:30 p 52.4 52.4 52.4 52.9 51.4 95 51.0 0.0 3.0 SSE 0.00 29.666
10/17/2004 1:00 p 53.5 53.5 53.5 54.0 52.9 90 50.6 0.0 5.0 NNE 0.00 29.655
10/17/2004 1:30 p 52.4 52.4 52.4 53.0 52.1 80 46.4 0.0 3.0 S 0.00 29.653
10/17/2004 2:00 p 53.6 53.6 53.6 54.1 53.0 58 39.2 0.0 5.0 NW 0.00 29.656
10/17/2004 2:30 p 54.2 54.2 54.2 54.7 53.9 55 38.4 0.0 3.0 S 0.00 29.656
10/17/2004 3:00 p 55.8 55.8 55.8 57.0 54.7 52 38.5 0.0 4.0 ESE 0.00 29.659
10/17/2004 3:30 p 55.3 55.3 55.3 56.3 54.4 51 37.5 0.0 4.0 WNW 0.00 29.668
10/17/2004 4:00 p 54.2 54.2 54.2 54.5 53.8 52 37.0 0.0 3.0 N 0.00 29.669
10/17/2004 4:30 p 52.6 52.6 52.6 53.8 51.9 55 36.9 0.0 4.0 NW 0.00 29.687
10/17/2004 5:00 p 52.5 52.5 52.5 52.8 52.1 55 36.8 0.0 4.0 SE 0.00 29.695
10/17/2004 5:30 p 51.8 51.8 51.8 52.1 51.6 58 37.5 0.0 1.0 S 0.00 29.710
10/17/2004 6:00 p 51.6 51.6 51.6 51.7 51.3 57 36.9 0.0 3.0 W 0.00 29.723
10/17/2004 6:30 p 50.9 50.9 50.9 51.3 50.5 61 37.9 0.0 2.0 SSW 0.00 29.740
10/17/2004 7:00 p 50.0 50.0 50.0 50.5 49.4 65 38.7 0.0 1.0 --- 0.00 29.754
10/17/2004 7:30 p 49.1 49.1 49.1 49.4 48.9 68 39.0 0.0 0.0 --- 0.00 29.765
10/17/2004 8:00 p 48.7 48.7 48.7 49.0 48.0 64 37.1 0.0 3.0 SSW 0.00 29.772
10/17/2004 8:30 p 48.1 48.1 48.1 48.3 47.9 63 36.1 0.0 2.0 SE 0.00 29.782
10/17/2004 9:00 p 46.9 46.9 46.9 47.9 46.4 66 36.2 0.0 1.0 SSE 0.00 29.796
10/17/2004 9:30 p 46.3 46.3 46.3 46.5 46.2 66 35.6 0.0 2.0 SSW 0.00 29.799
10/17/2004 10:00 p 45.6 45.6 45.6 46.2 44.7 70 36.4 0.0 0.0 --- 0.00 29.811
10/17/2004 10:30 p 43.4 43.4 43.4 44.7 42.1 79 37.3 0.0 0.0 --- 0.00 29.817
10/17/2004 11:00 p 41.5 41.5 41.5 42.0 41.3 80 35.8 0.0 0.0 --- 0.00 29.825
10/17/2004 11:30 p 41.5 41.5 41.5 41.8 41.1 82 36.4 0.0 0.0 --- 0.00 29.821
10/18/2004 12:00 a 40.6 40.6 40.6 41.1 39.8 86 36.7 0.0 0.0 --- 0.00 29.826
10/18/2004 12:30 a 39.1 39.1 39.1 39.8 38.5 90 36.4 0.0 0.0 --- 0.00 29.844
10/18/2004 1:00 a 38.4 38.4 38.4 38.5 38.2 92 36.3 0.0 0.0 --- 0.00 29.851
10/18/2004 1:30 a 37.9 37.9 37.9 38.2 37.6 93 36.1 0.0 0.0 --- 0.00 29.860
10/18/2004 2:00 a 37.4 37.4 37.4 37.8 37.0 94 35.8 0.0 0.0 --- 0.00 29.864
10/18/2004 2:30 a 36.8 36.8 36.8 37.0 36.5 94 35.2 0.0 0.0 --- 0.00 29.873
10/18/2004 3:00 a 36.5 36.5 36.5 36.5 36.4 96 35.5 0.0 0.0 --- 0.00 29.885
10/18/2004 3:30 a 36.3 36.3 36.3 36.5 36.2 97 35.5 0.0 0.0 --- 0.00 29.896
10/18/2004 4:00 a 36.1 36.1 36.1